<?xml version="1.0" encoding="UTF-8" standalone="no" ?>
<gpx xmlns="http://www.topografix.com/GPX/1/1" xmlns:xsi="http://www.w3.org/2001/XMLSchema-instance" xsi:schemaLocation="http://www.topografix.com/GPX/1/1 http://www.topografix.com/GPX/1/1/gpx.xsd" version="1.1" creator="VisuGPX - https://www.visugpx.com">
  <metadata>
    <name>14-Sauliac sur Celé_Saint Cirq Lapopie</name>
  </metadata>
  <trk>
    <name><![CDATA[14-Sauliac sur Celé_Saint Cirq Lapopie]]></name>
    <trkseg>
      <trkpt lat="44.51916" lon="1.72532">
        <ele>187</ele>
        <time>2021-03-13T19:12:58+01:00</time>
      </trkpt>
      <trkpt lat="44.51868" lon="1.72497">
        <ele>186</ele>
        <time>2021-03-13T19:13:03+01:00</time>
      </trkpt>
      <trkpt lat="44.51849" lon="1.72476">
        <ele>187</ele>
        <time>2021-03-13T19:13:08+01:00</time>
      </trkpt>
      <trkpt lat="44.51802" lon="1.72404">
        <ele>191</ele>
        <time>2021-03-13T19:13:13+01:00</time>
      </trkpt>
      <trkpt lat="44.51797" lon="1.72396">
        <ele>192</ele>
        <time>2021-03-13T19:13:18+01:00</time>
      </trkpt>
      <trkpt lat="44.5175" lon="1.72371">
        <ele>186</ele>
        <time>2021-03-13T19:13:23+01:00</time>
      </trkpt>
      <trkpt lat="44.51718" lon="1.7235">
        <ele>183</ele>
        <time>2021-03-13T19:13:28+01:00</time>
      </trkpt>
      <trkpt lat="44.51702" lon="1.72342">
        <ele>180</ele>
        <time>2021-03-13T19:13:33+01:00</time>
      </trkpt>
      <trkpt lat="44.51699" lon="1.7234">
        <ele>180</ele>
        <time>2021-03-13T19:13:38+01:00</time>
      </trkpt>
      <trkpt lat="44.51724" lon="1.72312">
        <ele>187</ele>
        <time>2021-03-13T19:13:43+01:00</time>
      </trkpt>
      <trkpt lat="44.51729" lon="1.72302">
        <ele>189</ele>
        <time>2021-03-13T19:13:48+01:00</time>
      </trkpt>
      <trkpt lat="44.51735" lon="1.72285">
        <ele>191</ele>
        <time>2021-03-13T19:13:53+01:00</time>
      </trkpt>
      <trkpt lat="44.51741" lon="1.72254">
        <ele>194</ele>
        <time>2021-03-13T19:13:58+01:00</time>
      </trkpt>
      <trkpt lat="44.51761" lon="1.72218">
        <ele>197</ele>
        <time>2021-03-13T19:14:03+01:00</time>
      </trkpt>
      <trkpt lat="44.5176" lon="1.72213">
        <ele>196</ele>
        <time>2021-03-13T19:14:08+01:00</time>
      </trkpt>
      <trkpt lat="44.51761" lon="1.72208">
        <ele>196</ele>
        <time>2021-03-13T19:14:13+01:00</time>
      </trkpt>
      <trkpt lat="44.51764" lon="1.72201">
        <ele>196</ele>
        <time>2021-03-13T19:14:18+01:00</time>
      </trkpt>
      <trkpt lat="44.51778" lon="1.72175">
        <ele>196</ele>
        <time>2021-03-13T19:14:23+01:00</time>
      </trkpt>
      <trkpt lat="44.51788" lon="1.72167">
        <ele>197</ele>
        <time>2021-03-13T19:14:28+01:00</time>
      </trkpt>
      <trkpt lat="44.51812" lon="1.72154">
        <ele>199</ele>
        <time>2021-03-13T19:14:33+01:00</time>
      </trkpt>
      <trkpt lat="44.51818" lon="1.7215">
        <ele>198</ele>
        <time>2021-03-13T19:14:38+01:00</time>
      </trkpt>
      <trkpt lat="44.51824" lon="1.72146">
        <ele>198</ele>
        <time>2021-03-13T19:14:43+01:00</time>
      </trkpt>
      <trkpt lat="44.51852" lon="1.72123">
        <ele>197</ele>
        <time>2021-03-13T19:14:48+01:00</time>
      </trkpt>
      <trkpt lat="44.51858" lon="1.72118">
        <ele>197</ele>
        <time>2021-03-13T19:14:53+01:00</time>
      </trkpt>
      <trkpt lat="44.51914" lon="1.7208">
        <ele>193</ele>
        <time>2021-03-13T19:14:58+01:00</time>
      </trkpt>
      <trkpt lat="44.51944" lon="1.7205">
        <ele>201</ele>
        <time>2021-03-13T19:15:03+01:00</time>
      </trkpt>
      <trkpt lat="44.51967" lon="1.72026">
        <ele>207</ele>
        <time>2021-03-13T19:15:08+01:00</time>
      </trkpt>
      <trkpt lat="44.51975" lon="1.72013">
        <ele>207</ele>
        <time>2021-03-13T19:15:13+01:00</time>
      </trkpt>
      <trkpt lat="44.51992" lon="1.71983">
        <ele>209</ele>
        <time>2021-03-13T19:15:18+01:00</time>
      </trkpt>
      <trkpt lat="44.52016" lon="1.71955">
        <ele>219</ele>
        <time>2021-03-13T19:15:23+01:00</time>
      </trkpt>
      <trkpt lat="44.52024" lon="1.71941">
        <ele>223</ele>
        <time>2021-03-13T19:15:28+01:00</time>
      </trkpt>
      <trkpt lat="44.52031" lon="1.7192">
        <ele>225</ele>
        <time>2021-03-13T19:15:33+01:00</time>
      </trkpt>
      <trkpt lat="44.52032" lon="1.71907">
        <ele>223</ele>
        <time>2021-03-13T19:15:38+01:00</time>
      </trkpt>
      <trkpt lat="44.52033" lon="1.71882">
        <ele>219</ele>
        <time>2021-03-13T19:15:43+01:00</time>
      </trkpt>
      <trkpt lat="44.52037" lon="1.71845">
        <ele>215</ele>
        <time>2021-03-13T19:15:48+01:00</time>
      </trkpt>
      <trkpt lat="44.52037" lon="1.71834">
        <ele>213</ele>
        <time>2021-03-13T19:15:53+01:00</time>
      </trkpt>
      <trkpt lat="44.52038" lon="1.71824">
        <ele>214</ele>
        <time>2021-03-13T19:15:58+01:00</time>
      </trkpt>
      <trkpt lat="44.52043" lon="1.7181">
        <ele>217</ele>
        <time>2021-03-13T19:16:03+01:00</time>
      </trkpt>
      <trkpt lat="44.52047" lon="1.71794">
        <ele>219</ele>
        <time>2021-03-13T19:16:08+01:00</time>
      </trkpt>
      <trkpt lat="44.52047" lon="1.71784">
        <ele>219</ele>
        <time>2021-03-13T19:16:13+01:00</time>
      </trkpt>
      <trkpt lat="44.52044" lon="1.71772">
        <ele>218</ele>
        <time>2021-03-13T19:16:18+01:00</time>
      </trkpt>
      <trkpt lat="44.52031" lon="1.71753">
        <ele>211</ele>
        <time>2021-03-13T19:16:23+01:00</time>
      </trkpt>
      <trkpt lat="44.52023" lon="1.71725">
        <ele>207</ele>
        <time>2021-03-13T19:16:28+01:00</time>
      </trkpt>
      <trkpt lat="44.52019" lon="1.71703">
        <ele>205</ele>
        <time>2021-03-13T19:16:33+01:00</time>
      </trkpt>
      <trkpt lat="44.52015" lon="1.71689">
        <ele>203</ele>
        <time>2021-03-13T19:16:38+01:00</time>
      </trkpt>
      <trkpt lat="44.52004" lon="1.71673">
        <ele>198</ele>
        <time>2021-03-13T19:16:43+01:00</time>
      </trkpt>
      <trkpt lat="44.51994" lon="1.71651">
        <ele>195</ele>
        <time>2021-03-13T19:16:48+01:00</time>
      </trkpt>
      <trkpt lat="44.51967" lon="1.71602">
        <ele>187</ele>
        <time>2021-03-13T19:16:53+01:00</time>
      </trkpt>
      <trkpt lat="44.5196" lon="1.71595">
        <ele>184</ele>
        <time>2021-03-13T19:16:58+01:00</time>
      </trkpt>
      <trkpt lat="44.51958" lon="1.71591">
        <ele>184</ele>
        <time>2021-03-13T19:17:03+01:00</time>
      </trkpt>
      <trkpt lat="44.51955" lon="1.71577">
        <ele>183</ele>
        <time>2021-03-13T19:17:08+01:00</time>
      </trkpt>
      <trkpt lat="44.51956" lon="1.7156">
        <ele>184</ele>
        <time>2021-03-13T19:17:13+01:00</time>
      </trkpt>
      <trkpt lat="44.51959" lon="1.71548">
        <ele>185</ele>
        <time>2021-03-13T19:17:18+01:00</time>
      </trkpt>
      <trkpt lat="44.51961" lon="1.71537">
        <ele>186</ele>
        <time>2021-03-13T19:17:23+01:00</time>
      </trkpt>
      <trkpt lat="44.51982" lon="1.71485">
        <ele>194</ele>
        <time>2021-03-13T19:17:28+01:00</time>
      </trkpt>
      <trkpt lat="44.52" lon="1.7146">
        <ele>197</ele>
        <time>2021-03-13T19:17:33+01:00</time>
      </trkpt>
      <trkpt lat="44.52017" lon="1.71442">
        <ele>199</ele>
        <time>2021-03-13T19:17:38+01:00</time>
      </trkpt>
      <trkpt lat="44.52025" lon="1.71437">
        <ele>200</ele>
        <time>2021-03-13T19:17:43+01:00</time>
      </trkpt>
      <trkpt lat="44.52025" lon="1.71434">
        <ele>200</ele>
        <time>2021-03-13T19:17:48+01:00</time>
      </trkpt>
      <trkpt lat="44.52031" lon="1.7143">
        <ele>200</ele>
        <time>2021-03-13T19:17:53+01:00</time>
      </trkpt>
      <trkpt lat="44.52054" lon="1.71408">
        <ele>202</ele>
        <time>2021-03-13T19:17:58+01:00</time>
      </trkpt>
      <trkpt lat="44.52054" lon="1.71408">
        <ele>202</ele>
        <time>2021-03-13T19:18:03+01:00</time>
      </trkpt>
      <trkpt lat="44.52071" lon="1.71386">
        <ele>203</ele>
        <time>2021-03-13T19:18:08+01:00</time>
      </trkpt>
      <trkpt lat="44.52083" lon="1.71378">
        <ele>203</ele>
        <time>2021-03-13T19:18:13+01:00</time>
      </trkpt>
      <trkpt lat="44.521" lon="1.71361">
        <ele>203</ele>
        <time>2021-03-13T19:18:18+01:00</time>
      </trkpt>
      <trkpt lat="44.5212" lon="1.71334">
        <ele>201</ele>
        <time>2021-03-13T19:18:23+01:00</time>
      </trkpt>
      <trkpt lat="44.52124" lon="1.71327">
        <ele>202</ele>
        <time>2021-03-13T19:18:28+01:00</time>
      </trkpt>
      <trkpt lat="44.5213" lon="1.71304">
        <ele>206</ele>
        <time>2021-03-13T19:18:33+01:00</time>
      </trkpt>
      <trkpt lat="44.52143" lon="1.71283">
        <ele>209</ele>
        <time>2021-03-13T19:18:38+01:00</time>
      </trkpt>
      <trkpt lat="44.52166" lon="1.71268">
        <ele>209</ele>
        <time>2021-03-13T19:18:43+01:00</time>
      </trkpt>
      <trkpt lat="44.52214" lon="1.71241">
        <ele>216</ele>
        <time>2021-03-13T19:18:48+01:00</time>
      </trkpt>
      <trkpt lat="44.52234" lon="1.71233">
        <ele>219</ele>
        <time>2021-03-13T19:18:53+01:00</time>
      </trkpt>
      <trkpt lat="44.52247" lon="1.71236">
        <ele>218</ele>
        <time>2021-03-13T19:18:58+01:00</time>
      </trkpt>
      <trkpt lat="44.52267" lon="1.71244">
        <ele>219</ele>
        <time>2021-03-13T19:19:03+01:00</time>
      </trkpt>
      <trkpt lat="44.52272" lon="1.71249">
        <ele>219</ele>
        <time>2021-03-13T19:19:08+01:00</time>
      </trkpt>
      <trkpt lat="44.52287" lon="1.71269">
        <ele>219</ele>
        <time>2021-03-13T19:19:13+01:00</time>
      </trkpt>
      <trkpt lat="44.5229" lon="1.7127">
        <ele>220</ele>
        <time>2021-03-13T19:19:18+01:00</time>
      </trkpt>
      <trkpt lat="44.52291" lon="1.71268">
        <ele>220</ele>
        <time>2021-03-13T19:19:23+01:00</time>
      </trkpt>
      <trkpt lat="44.52289" lon="1.71262">
        <ele>221</ele>
        <time>2021-03-13T19:19:28+01:00</time>
      </trkpt>
      <trkpt lat="44.52276" lon="1.7124">
        <ele>222</ele>
        <time>2021-03-13T19:19:33+01:00</time>
      </trkpt>
      <trkpt lat="44.52245" lon="1.71208">
        <ele>226</ele>
        <time>2021-03-13T19:19:38+01:00</time>
      </trkpt>
      <trkpt lat="44.52221" lon="1.71197">
        <ele>230</ele>
        <time>2021-03-13T19:19:43+01:00</time>
      </trkpt>
      <trkpt lat="44.52222" lon="1.71193">
        <ele>231</ele>
        <time>2021-03-13T19:19:48+01:00</time>
      </trkpt>
      <trkpt lat="44.52233" lon="1.71189">
        <ele>232</ele>
        <time>2021-03-13T19:19:53+01:00</time>
      </trkpt>
      <trkpt lat="44.52246" lon="1.71191">
        <ele>231</ele>
        <time>2021-03-13T19:19:58+01:00</time>
      </trkpt>
      <trkpt lat="44.52281" lon="1.71203">
        <ele>231</ele>
        <time>2021-03-13T19:20:03+01:00</time>
      </trkpt>
      <trkpt lat="44.52296" lon="1.71204">
        <ele>233</ele>
        <time>2021-03-13T19:20:08+01:00</time>
      </trkpt>
      <trkpt lat="44.52309" lon="1.71202">
        <ele>234</ele>
        <time>2021-03-13T19:20:13+01:00</time>
      </trkpt>
      <trkpt lat="44.52325" lon="1.71198">
        <ele>237</ele>
        <time>2021-03-13T19:20:18+01:00</time>
      </trkpt>
      <trkpt lat="44.52333" lon="1.71192">
        <ele>238</ele>
        <time>2021-03-13T19:20:23+01:00</time>
      </trkpt>
      <trkpt lat="44.52339" lon="1.71183">
        <ele>240</ele>
        <time>2021-03-13T19:20:28+01:00</time>
      </trkpt>
      <trkpt lat="44.52343" lon="1.7117">
        <ele>242</ele>
        <time>2021-03-13T19:20:33+01:00</time>
      </trkpt>
      <trkpt lat="44.52347" lon="1.71142">
        <ele>243</ele>
        <time>2021-03-13T19:20:38+01:00</time>
      </trkpt>
      <trkpt lat="44.52346" lon="1.71125">
        <ele>243</ele>
        <time>2021-03-13T19:20:43+01:00</time>
      </trkpt>
      <trkpt lat="44.52333" lon="1.71054">
        <ele>241</ele>
        <time>2021-03-13T19:20:48+01:00</time>
      </trkpt>
      <trkpt lat="44.52332" lon="1.71037">
        <ele>240</ele>
        <time>2021-03-13T19:20:53+01:00</time>
      </trkpt>
      <trkpt lat="44.52333" lon="1.71025">
        <ele>239</ele>
        <time>2021-03-13T19:20:58+01:00</time>
      </trkpt>
      <trkpt lat="44.52336" lon="1.71011">
        <ele>238</ele>
        <time>2021-03-13T19:21:03+01:00</time>
      </trkpt>
      <trkpt lat="44.52357" lon="1.70976">
        <ele>233</ele>
        <time>2021-03-13T19:21:08+01:00</time>
      </trkpt>
      <trkpt lat="44.52391" lon="1.70931">
        <ele>227</ele>
        <time>2021-03-13T19:21:13+01:00</time>
      </trkpt>
      <trkpt lat="44.5243" lon="1.70871">
        <ele>219</ele>
        <time>2021-03-13T19:21:18+01:00</time>
      </trkpt>
      <trkpt lat="44.52461" lon="1.7083">
        <ele>214</ele>
        <time>2021-03-13T19:21:23+01:00</time>
      </trkpt>
      <trkpt lat="44.52479" lon="1.70809">
        <ele>215</ele>
        <time>2021-03-13T19:21:28+01:00</time>
      </trkpt>
      <trkpt lat="44.52495" lon="1.70797">
        <ele>216</ele>
        <time>2021-03-13T19:21:33+01:00</time>
      </trkpt>
      <trkpt lat="44.52528" lon="1.70778">
        <ele>216</ele>
        <time>2021-03-13T19:21:38+01:00</time>
      </trkpt>
      <trkpt lat="44.52538" lon="1.70776">
        <ele>217</ele>
        <time>2021-03-13T19:21:43+01:00</time>
      </trkpt>
      <trkpt lat="44.5256" lon="1.70766">
        <ele>217</ele>
        <time>2021-03-13T19:21:48+01:00</time>
      </trkpt>
      <trkpt lat="44.5264" lon="1.70714">
        <ele>227</ele>
        <time>2021-03-13T19:21:53+01:00</time>
      </trkpt>
      <trkpt lat="44.52682" lon="1.70683">
        <ele>232</ele>
        <time>2021-03-13T19:21:58+01:00</time>
      </trkpt>
      <trkpt lat="44.52694" lon="1.70664">
        <ele>234</ele>
        <time>2021-03-13T19:22:03+01:00</time>
      </trkpt>
      <trkpt lat="44.52707" lon="1.70634">
        <ele>237</ele>
        <time>2021-03-13T19:22:08+01:00</time>
      </trkpt>
      <trkpt lat="44.52722" lon="1.70609">
        <ele>240</ele>
        <time>2021-03-13T19:22:13+01:00</time>
      </trkpt>
      <trkpt lat="44.52733" lon="1.70599">
        <ele>241</ele>
        <time>2021-03-13T19:22:18+01:00</time>
      </trkpt>
      <trkpt lat="44.52771" lon="1.70592">
        <ele>242</ele>
        <time>2021-03-13T19:22:23+01:00</time>
      </trkpt>
      <trkpt lat="44.52783" lon="1.7057">
        <ele>244</ele>
        <time>2021-03-13T19:22:28+01:00</time>
      </trkpt>
      <trkpt lat="44.52789" lon="1.7056">
        <ele>245</ele>
        <time>2021-03-13T19:22:33+01:00</time>
      </trkpt>
      <trkpt lat="44.52783" lon="1.70545">
        <ele>245</ele>
        <time>2021-03-13T19:22:38+01:00</time>
      </trkpt>
      <trkpt lat="44.52774" lon="1.70513">
        <ele>247</ele>
        <time>2021-03-13T19:22:43+01:00</time>
      </trkpt>
      <trkpt lat="44.52761" lon="1.70492">
        <ele>249</ele>
        <time>2021-03-13T19:22:48+01:00</time>
      </trkpt>
      <trkpt lat="44.52759" lon="1.70484">
        <ele>250</ele>
        <time>2021-03-13T19:22:53+01:00</time>
      </trkpt>
      <trkpt lat="44.52759" lon="1.70474">
        <ele>251</ele>
        <time>2021-03-13T19:22:58+01:00</time>
      </trkpt>
      <trkpt lat="44.52766" lon="1.70466">
        <ele>252</ele>
        <time>2021-03-13T19:23:03+01:00</time>
      </trkpt>
      <trkpt lat="44.52773" lon="1.70457">
        <ele>253</ele>
        <time>2021-03-13T19:23:08+01:00</time>
      </trkpt>
      <trkpt lat="44.52809" lon="1.70439">
        <ele>255</ele>
        <time>2021-03-13T19:23:13+01:00</time>
      </trkpt>
      <trkpt lat="44.52821" lon="1.70431">
        <ele>256</ele>
        <time>2021-03-13T19:23:18+01:00</time>
      </trkpt>
      <trkpt lat="44.52831" lon="1.70421">
        <ele>257</ele>
        <time>2021-03-13T19:23:23+01:00</time>
      </trkpt>
      <trkpt lat="44.5286" lon="1.7037">
        <ele>260</ele>
        <time>2021-03-13T19:23:28+01:00</time>
      </trkpt>
      <trkpt lat="44.52871" lon="1.7036">
        <ele>261</ele>
        <time>2021-03-13T19:23:33+01:00</time>
      </trkpt>
      <trkpt lat="44.52912" lon="1.70341">
        <ele>262</ele>
        <time>2021-03-13T19:23:38+01:00</time>
      </trkpt>
      <trkpt lat="44.5293" lon="1.70329">
        <ele>262</ele>
        <time>2021-03-13T19:23:43+01:00</time>
      </trkpt>
      <trkpt lat="44.52946" lon="1.70315">
        <ele>262</ele>
        <time>2021-03-13T19:23:48+01:00</time>
      </trkpt>
      <trkpt lat="44.52993" lon="1.70253">
        <ele>264</ele>
        <time>2021-03-13T19:23:53+01:00</time>
      </trkpt>
      <trkpt lat="44.53003" lon="1.70237">
        <ele>264</ele>
        <time>2021-03-13T19:23:58+01:00</time>
      </trkpt>
      <trkpt lat="44.53008" lon="1.70221">
        <ele>265</ele>
        <time>2021-03-13T19:24:03+01:00</time>
      </trkpt>
      <trkpt lat="44.53012" lon="1.702">
        <ele>266</ele>
        <time>2021-03-13T19:24:08+01:00</time>
      </trkpt>
      <trkpt lat="44.53016" lon="1.70205">
        <ele>266</ele>
        <time>2021-03-13T19:24:13+01:00</time>
      </trkpt>
      <trkpt lat="44.53012" lon="1.702">
        <ele>266</ele>
        <time>2021-03-13T19:24:18+01:00</time>
      </trkpt>
      <trkpt lat="44.53009" lon="1.70172">
        <ele>267</ele>
        <time>2021-03-13T19:24:23+01:00</time>
      </trkpt>
      <trkpt lat="44.53005" lon="1.70149">
        <ele>267</ele>
        <time>2021-03-13T19:24:28+01:00</time>
      </trkpt>
      <trkpt lat="44.53004" lon="1.70079">
        <ele>265</ele>
        <time>2021-03-13T19:24:33+01:00</time>
      </trkpt>
      <trkpt lat="44.53006" lon="1.70064">
        <ele>263</ele>
        <time>2021-03-13T19:24:38+01:00</time>
      </trkpt>
      <trkpt lat="44.53009" lon="1.70052">
        <ele>262</ele>
        <time>2021-03-13T19:24:43+01:00</time>
      </trkpt>
      <trkpt lat="44.53038" lon="1.70009">
        <ele>260</ele>
        <time>2021-03-13T19:24:48+01:00</time>
      </trkpt>
      <trkpt lat="44.53043" lon="1.70005">
        <ele>260</ele>
        <time>2021-03-13T19:24:53+01:00</time>
      </trkpt>
      <trkpt lat="44.53048" lon="1.70004">
        <ele>260</ele>
        <time>2021-03-13T19:24:58+01:00</time>
      </trkpt>
      <trkpt lat="44.53051" lon="1.69997">
        <ele>259</ele>
        <time>2021-03-13T19:25:03+01:00</time>
      </trkpt>
      <trkpt lat="44.53101" lon="1.6994">
        <ele>255</ele>
        <time>2021-03-13T19:25:08+01:00</time>
      </trkpt>
      <trkpt lat="44.53111" lon="1.69932">
        <ele>254</ele>
        <time>2021-03-13T19:25:13+01:00</time>
      </trkpt>
      <trkpt lat="44.53175" lon="1.69893">
        <ele>252</ele>
        <time>2021-03-13T19:25:18+01:00</time>
      </trkpt>
      <trkpt lat="44.53179" lon="1.69889">
        <ele>252</ele>
        <time>2021-03-13T19:25:23+01:00</time>
      </trkpt>
      <trkpt lat="44.5318" lon="1.69885">
        <ele>251</ele>
        <time>2021-03-13T19:25:28+01:00</time>
      </trkpt>
      <trkpt lat="44.53182" lon="1.69884">
        <ele>251</ele>
        <time>2021-03-13T19:25:33+01:00</time>
      </trkpt>
      <trkpt lat="44.5318" lon="1.69885">
        <ele>251</ele>
        <time>2021-03-13T19:25:38+01:00</time>
      </trkpt>
      <trkpt lat="44.53179" lon="1.69882">
        <ele>251</ele>
        <time>2021-03-13T19:25:43+01:00</time>
      </trkpt>
      <trkpt lat="44.53173" lon="1.6988">
        <ele>250</ele>
        <time>2021-03-13T19:25:48+01:00</time>
      </trkpt>
      <trkpt lat="44.53132" lon="1.6988">
        <ele>249</ele>
        <time>2021-03-13T19:25:53+01:00</time>
      </trkpt>
      <trkpt lat="44.53078" lon="1.69872">
        <ele>247</ele>
        <time>2021-03-13T19:25:58+01:00</time>
      </trkpt>
      <trkpt lat="44.53064" lon="1.69871">
        <ele>246</ele>
        <time>2021-03-13T19:26:03+01:00</time>
      </trkpt>
      <trkpt lat="44.53051" lon="1.69871">
        <ele>246</ele>
        <time>2021-03-13T19:26:08+01:00</time>
      </trkpt>
      <trkpt lat="44.53023" lon="1.69871">
        <ele>245</ele>
        <time>2021-03-13T19:26:13+01:00</time>
      </trkpt>
      <trkpt lat="44.53016" lon="1.69871">
        <ele>245</ele>
        <time>2021-03-13T19:26:18+01:00</time>
      </trkpt>
      <trkpt lat="44.53004" lon="1.69872">
        <ele>244</ele>
        <time>2021-03-13T19:26:23+01:00</time>
      </trkpt>
      <trkpt lat="44.52988" lon="1.69871">
        <ele>244</ele>
        <time>2021-03-13T19:26:28+01:00</time>
      </trkpt>
      <trkpt lat="44.52921" lon="1.69848">
        <ele>241</ele>
        <time>2021-03-13T19:26:33+01:00</time>
      </trkpt>
      <trkpt lat="44.52908" lon="1.69846">
        <ele>241</ele>
        <time>2021-03-13T19:26:38+01:00</time>
      </trkpt>
      <trkpt lat="44.52863" lon="1.6985">
        <ele>241</ele>
        <time>2021-03-13T19:26:43+01:00</time>
      </trkpt>
      <trkpt lat="44.52827" lon="1.69848">
        <ele>240</ele>
        <time>2021-03-13T19:26:48+01:00</time>
      </trkpt>
      <trkpt lat="44.52787" lon="1.69837">
        <ele>240</ele>
        <time>2021-03-13T19:26:53+01:00</time>
      </trkpt>
      <trkpt lat="44.52723" lon="1.6981">
        <ele>240</ele>
        <time>2021-03-13T19:26:58+01:00</time>
      </trkpt>
      <trkpt lat="44.52706" lon="1.69797">
        <ele>239</ele>
        <time>2021-03-13T19:27:03+01:00</time>
      </trkpt>
      <trkpt lat="44.5268" lon="1.69761">
        <ele>237</ele>
        <time>2021-03-13T19:27:08+01:00</time>
      </trkpt>
      <trkpt lat="44.5267" lon="1.69744">
        <ele>235</ele>
        <time>2021-03-13T19:27:13+01:00</time>
      </trkpt>
      <trkpt lat="44.5263" lon="1.69704">
        <ele>232</ele>
        <time>2021-03-13T19:27:18+01:00</time>
      </trkpt>
      <trkpt lat="44.52599" lon="1.69678">
        <ele>229</ele>
        <time>2021-03-13T19:27:23+01:00</time>
      </trkpt>
      <trkpt lat="44.52559" lon="1.69654">
        <ele>227</ele>
        <time>2021-03-13T19:27:28+01:00</time>
      </trkpt>
      <trkpt lat="44.5254" lon="1.69638">
        <ele>226</ele>
        <time>2021-03-13T19:27:33+01:00</time>
      </trkpt>
      <trkpt lat="44.52539" lon="1.69637">
        <ele>226</ele>
        <time>2021-03-13T19:27:38+01:00</time>
      </trkpt>
      <trkpt lat="44.52525" lon="1.6963">
        <ele>225</ele>
        <time>2021-03-13T19:27:43+01:00</time>
      </trkpt>
      <trkpt lat="44.52531" lon="1.69623">
        <ele>225</ele>
        <time>2021-03-13T19:27:48+01:00</time>
      </trkpt>
      <trkpt lat="44.5254" lon="1.69604">
        <ele>224</ele>
        <time>2021-03-13T19:27:53+01:00</time>
      </trkpt>
      <trkpt lat="44.52544" lon="1.69589">
        <ele>224</ele>
        <time>2021-03-13T19:27:58+01:00</time>
      </trkpt>
      <trkpt lat="44.52542" lon="1.69557">
        <ele>224</ele>
        <time>2021-03-13T19:28:03+01:00</time>
      </trkpt>
      <trkpt lat="44.52547" lon="1.69521">
        <ele>226</ele>
        <time>2021-03-13T19:28:08+01:00</time>
      </trkpt>
      <trkpt lat="44.52544" lon="1.69502">
        <ele>227</ele>
        <time>2021-03-13T19:28:13+01:00</time>
      </trkpt>
      <trkpt lat="44.52547" lon="1.69476">
        <ele>228</ele>
        <time>2021-03-13T19:28:18+01:00</time>
      </trkpt>
      <trkpt lat="44.52542" lon="1.69457">
        <ele>230</ele>
        <time>2021-03-13T19:28:23+01:00</time>
      </trkpt>
      <trkpt lat="44.52541" lon="1.69448">
        <ele>230</ele>
        <time>2021-03-13T19:28:28+01:00</time>
      </trkpt>
      <trkpt lat="44.52542" lon="1.69437">
        <ele>231</ele>
        <time>2021-03-13T19:28:33+01:00</time>
      </trkpt>
      <trkpt lat="44.52546" lon="1.69425">
        <ele>232</ele>
        <time>2021-03-13T19:28:38+01:00</time>
      </trkpt>
      <trkpt lat="44.52545" lon="1.69401">
        <ele>234</ele>
        <time>2021-03-13T19:28:43+01:00</time>
      </trkpt>
      <trkpt lat="44.52554" lon="1.69356">
        <ele>238</ele>
        <time>2021-03-13T19:28:48+01:00</time>
      </trkpt>
      <trkpt lat="44.52552" lon="1.69337">
        <ele>240</ele>
        <time>2021-03-13T19:28:53+01:00</time>
      </trkpt>
      <trkpt lat="44.52554" lon="1.69318">
        <ele>242</ele>
        <time>2021-03-13T19:28:58+01:00</time>
      </trkpt>
      <trkpt lat="44.52556" lon="1.69296">
        <ele>244</ele>
        <time>2021-03-13T19:29:03+01:00</time>
      </trkpt>
      <trkpt lat="44.52562" lon="1.6927">
        <ele>246</ele>
        <time>2021-03-13T19:29:08+01:00</time>
      </trkpt>
      <trkpt lat="44.52566" lon="1.69185">
        <ele>250</ele>
        <time>2021-03-13T19:29:13+01:00</time>
      </trkpt>
      <trkpt lat="44.52573" lon="1.69166">
        <ele>251</ele>
        <time>2021-03-13T19:29:18+01:00</time>
      </trkpt>
      <trkpt lat="44.52575" lon="1.69139">
        <ele>252</ele>
        <time>2021-03-13T19:29:23+01:00</time>
      </trkpt>
      <trkpt lat="44.52572" lon="1.69123">
        <ele>252</ele>
        <time>2021-03-13T19:29:28+01:00</time>
      </trkpt>
      <trkpt lat="44.52572" lon="1.69112">
        <ele>252</ele>
        <time>2021-03-13T19:29:33+01:00</time>
      </trkpt>
      <trkpt lat="44.52575" lon="1.69067">
        <ele>253</ele>
        <time>2021-03-13T19:29:38+01:00</time>
      </trkpt>
      <trkpt lat="44.5257" lon="1.69028">
        <ele>254</ele>
        <time>2021-03-13T19:29:43+01:00</time>
      </trkpt>
      <trkpt lat="44.52576" lon="1.69">
        <ele>256</ele>
        <time>2021-03-13T19:29:48+01:00</time>
      </trkpt>
      <trkpt lat="44.52576" lon="1.68981">
        <ele>256</ele>
        <time>2021-03-13T19:29:53+01:00</time>
      </trkpt>
      <trkpt lat="44.52579" lon="1.68968">
        <ele>256</ele>
        <time>2021-03-13T19:29:58+01:00</time>
      </trkpt>
      <trkpt lat="44.52586" lon="1.68953">
        <ele>257</ele>
        <time>2021-03-13T19:30:03+01:00</time>
      </trkpt>
      <trkpt lat="44.52594" lon="1.68942">
        <ele>257</ele>
        <time>2021-03-13T19:30:08+01:00</time>
      </trkpt>
      <trkpt lat="44.52603" lon="1.68934">
        <ele>258</ele>
        <time>2021-03-13T19:30:13+01:00</time>
      </trkpt>
      <trkpt lat="44.52625" lon="1.68921">
        <ele>259</ele>
        <time>2021-03-13T19:30:18+01:00</time>
      </trkpt>
      <trkpt lat="44.5263" lon="1.68916">
        <ele>260</ele>
        <time>2021-03-13T19:30:23+01:00</time>
      </trkpt>
      <trkpt lat="44.52644" lon="1.68865">
        <ele>262</ele>
        <time>2021-03-13T19:30:28+01:00</time>
      </trkpt>
      <trkpt lat="44.52655" lon="1.68839">
        <ele>263</ele>
        <time>2021-03-13T19:30:33+01:00</time>
      </trkpt>
      <trkpt lat="44.52669" lon="1.68789">
        <ele>265</ele>
        <time>2021-03-13T19:30:38+01:00</time>
      </trkpt>
      <trkpt lat="44.52682" lon="1.68761">
        <ele>266</ele>
        <time>2021-03-13T19:30:43+01:00</time>
      </trkpt>
      <trkpt lat="44.52686" lon="1.68751">
        <ele>266</ele>
        <time>2021-03-13T19:30:48+01:00</time>
      </trkpt>
      <trkpt lat="44.52696" lon="1.68742">
        <ele>266</ele>
        <time>2021-03-13T19:30:53+01:00</time>
      </trkpt>
      <trkpt lat="44.52725" lon="1.68667">
        <ele>263</ele>
        <time>2021-03-13T19:30:58+01:00</time>
      </trkpt>
      <trkpt lat="44.52728" lon="1.68642">
        <ele>261</ele>
        <time>2021-03-13T19:31:03+01:00</time>
      </trkpt>
      <trkpt lat="44.52737" lon="1.68619">
        <ele>259</ele>
        <time>2021-03-13T19:31:08+01:00</time>
      </trkpt>
      <trkpt lat="44.52741" lon="1.68579">
        <ele>256</ele>
        <time>2021-03-13T19:31:13+01:00</time>
      </trkpt>
      <trkpt lat="44.52746" lon="1.68551">
        <ele>254</ele>
        <time>2021-03-13T19:31:18+01:00</time>
      </trkpt>
      <trkpt lat="44.52749" lon="1.68535">
        <ele>253</ele>
        <time>2021-03-13T19:31:23+01:00</time>
      </trkpt>
      <trkpt lat="44.52756" lon="1.68517">
        <ele>252</ele>
        <time>2021-03-13T19:31:28+01:00</time>
      </trkpt>
      <trkpt lat="44.52762" lon="1.68507">
        <ele>251</ele>
        <time>2021-03-13T19:31:33+01:00</time>
      </trkpt>
      <trkpt lat="44.52762" lon="1.685">
        <ele>250</ele>
        <time>2021-03-13T19:31:38+01:00</time>
      </trkpt>
      <trkpt lat="44.52764" lon="1.68494">
        <ele>249</ele>
        <time>2021-03-13T19:31:43+01:00</time>
      </trkpt>
      <trkpt lat="44.52764" lon="1.68481">
        <ele>248</ele>
        <time>2021-03-13T19:31:48+01:00</time>
      </trkpt>
      <trkpt lat="44.52765" lon="1.68474">
        <ele>247</ele>
        <time>2021-03-13T19:31:53+01:00</time>
      </trkpt>
      <trkpt lat="44.52767" lon="1.68471">
        <ele>246</ele>
        <time>2021-03-13T19:31:58+01:00</time>
      </trkpt>
      <trkpt lat="44.52767" lon="1.68464">
        <ele>246</ele>
        <time>2021-03-13T19:32:03+01:00</time>
      </trkpt>
      <trkpt lat="44.52769" lon="1.68461">
        <ele>245</ele>
        <time>2021-03-13T19:32:08+01:00</time>
      </trkpt>
      <trkpt lat="44.52762" lon="1.68439">
        <ele>243</ele>
        <time>2021-03-13T19:32:13+01:00</time>
      </trkpt>
      <trkpt lat="44.52755" lon="1.68402">
        <ele>240</ele>
        <time>2021-03-13T19:32:18+01:00</time>
      </trkpt>
      <trkpt lat="44.52751" lon="1.6837">
        <ele>238</ele>
        <time>2021-03-13T19:32:23+01:00</time>
      </trkpt>
      <trkpt lat="44.52747" lon="1.6828">
        <ele>231</ele>
        <time>2021-03-13T19:32:28+01:00</time>
      </trkpt>
      <trkpt lat="44.52749" lon="1.68269">
        <ele>230</ele>
        <time>2021-03-13T19:32:33+01:00</time>
      </trkpt>
      <trkpt lat="44.52751" lon="1.68266">
        <ele>229</ele>
        <time>2021-03-13T19:32:38+01:00</time>
      </trkpt>
      <trkpt lat="44.52756" lon="1.68264">
        <ele>229</ele>
        <time>2021-03-13T19:32:43+01:00</time>
      </trkpt>
      <trkpt lat="44.52761" lon="1.68265">
        <ele>228</ele>
        <time>2021-03-13T19:32:48+01:00</time>
      </trkpt>
      <trkpt lat="44.52806" lon="1.68295">
        <ele>226</ele>
        <time>2021-03-13T19:32:53+01:00</time>
      </trkpt>
      <trkpt lat="44.52827" lon="1.68305">
        <ele>224</ele>
        <time>2021-03-13T19:32:58+01:00</time>
      </trkpt>
      <trkpt lat="44.52834" lon="1.68304">
        <ele>223</ele>
        <time>2021-03-13T19:33:03+01:00</time>
      </trkpt>
      <trkpt lat="44.52854" lon="1.68289">
        <ele>226</ele>
        <time>2021-03-13T19:33:08+01:00</time>
      </trkpt>
      <trkpt lat="44.52856" lon="1.68283">
        <ele>226</ele>
        <time>2021-03-13T19:33:13+01:00</time>
      </trkpt>
      <trkpt lat="44.52862" lon="1.68234">
        <ele>227</ele>
        <time>2021-03-13T19:33:18+01:00</time>
      </trkpt>
      <trkpt lat="44.52845" lon="1.68125">
        <ele>224</ele>
        <time>2021-03-13T19:33:23+01:00</time>
      </trkpt>
      <trkpt lat="44.52847" lon="1.6811">
        <ele>224</ele>
        <time>2021-03-13T19:33:28+01:00</time>
      </trkpt>
      <trkpt lat="44.52857" lon="1.68084">
        <ele>224</ele>
        <time>2021-03-13T19:33:33+01:00</time>
      </trkpt>
      <trkpt lat="44.52863" lon="1.68077">
        <ele>225</ele>
        <time>2021-03-13T19:33:38+01:00</time>
      </trkpt>
      <trkpt lat="44.52867" lon="1.68072">
        <ele>225</ele>
        <time>2021-03-13T19:33:43+01:00</time>
      </trkpt>
      <trkpt lat="44.52914" lon="1.68017">
        <ele>224</ele>
        <time>2021-03-13T19:33:48+01:00</time>
      </trkpt>
      <trkpt lat="44.52947" lon="1.67971">
        <ele>221</ele>
        <time>2021-03-13T19:33:53+01:00</time>
      </trkpt>
      <trkpt lat="44.52984" lon="1.6791">
        <ele>215</ele>
        <time>2021-03-13T19:33:58+01:00</time>
      </trkpt>
      <trkpt lat="44.52994" lon="1.67903">
        <ele>215</ele>
        <time>2021-03-13T19:34:03+01:00</time>
      </trkpt>
      <trkpt lat="44.5302" lon="1.67898">
        <ele>215</ele>
        <time>2021-03-13T19:34:08+01:00</time>
      </trkpt>
      <trkpt lat="44.5303" lon="1.67891">
        <ele>216</ele>
        <time>2021-03-13T19:34:13+01:00</time>
      </trkpt>
      <trkpt lat="44.53036" lon="1.6788">
        <ele>216</ele>
        <time>2021-03-13T19:34:18+01:00</time>
      </trkpt>
      <trkpt lat="44.53038" lon="1.67872">
        <ele>216</ele>
        <time>2021-03-13T19:34:23+01:00</time>
      </trkpt>
      <trkpt lat="44.53038" lon="1.67865">
        <ele>217</ele>
        <time>2021-03-13T19:34:28+01:00</time>
      </trkpt>
      <trkpt lat="44.5304" lon="1.67865">
        <ele>217</ele>
        <time>2021-03-13T19:34:33+01:00</time>
      </trkpt>
      <trkpt lat="44.53038" lon="1.67865">
        <ele>217</ele>
        <time>2021-03-13T19:34:38+01:00</time>
      </trkpt>
      <trkpt lat="44.53019" lon="1.67841">
        <ele>217</ele>
        <time>2021-03-13T19:34:43+01:00</time>
      </trkpt>
      <trkpt lat="44.52999" lon="1.67818">
        <ele>219</ele>
        <time>2021-03-13T19:34:48+01:00</time>
      </trkpt>
      <trkpt lat="44.52987" lon="1.6781">
        <ele>220</ele>
        <time>2021-03-13T19:34:53+01:00</time>
      </trkpt>
      <trkpt lat="44.5289" lon="1.67788">
        <ele>223</ele>
        <time>2021-03-13T19:34:58+01:00</time>
      </trkpt>
      <trkpt lat="44.5288" lon="1.67769">
        <ele>225</ele>
        <time>2021-03-13T19:35:03+01:00</time>
      </trkpt>
      <trkpt lat="44.52855" lon="1.67736">
        <ele>227</ele>
        <time>2021-03-13T19:35:08+01:00</time>
      </trkpt>
      <trkpt lat="44.5283" lon="1.67698">
        <ele>226</ele>
        <time>2021-03-13T19:35:13+01:00</time>
      </trkpt>
      <trkpt lat="44.52819" lon="1.6769">
        <ele>226</ele>
        <time>2021-03-13T19:35:18+01:00</time>
      </trkpt>
      <trkpt lat="44.52787" lon="1.67672">
        <ele>225</ele>
        <time>2021-03-13T19:35:23+01:00</time>
      </trkpt>
      <trkpt lat="44.52776" lon="1.6766">
        <ele>225</ele>
        <time>2021-03-13T19:35:28+01:00</time>
      </trkpt>
      <trkpt lat="44.52771" lon="1.67653">
        <ele>225</ele>
        <time>2021-03-13T19:35:33+01:00</time>
      </trkpt>
      <trkpt lat="44.52762" lon="1.67632">
        <ele>225</ele>
        <time>2021-03-13T19:35:38+01:00</time>
      </trkpt>
      <trkpt lat="44.52744" lon="1.67602">
        <ele>225</ele>
        <time>2021-03-13T19:35:43+01:00</time>
      </trkpt>
      <trkpt lat="44.52728" lon="1.67573">
        <ele>224</ele>
        <time>2021-03-13T19:35:48+01:00</time>
      </trkpt>
      <trkpt lat="44.52727" lon="1.67567">
        <ele>224</ele>
        <time>2021-03-13T19:35:53+01:00</time>
      </trkpt>
      <trkpt lat="44.52733" lon="1.6752">
        <ele>225</ele>
        <time>2021-03-13T19:35:58+01:00</time>
      </trkpt>
      <trkpt lat="44.52736" lon="1.67508">
        <ele>226</ele>
        <time>2021-03-13T19:36:03+01:00</time>
      </trkpt>
      <trkpt lat="44.52742" lon="1.67491">
        <ele>227</ele>
        <time>2021-03-13T19:36:08+01:00</time>
      </trkpt>
      <trkpt lat="44.52755" lon="1.67446">
        <ele>228</ele>
        <time>2021-03-13T19:36:13+01:00</time>
      </trkpt>
      <trkpt lat="44.52766" lon="1.67413">
        <ele>230</ele>
        <time>2021-03-13T19:36:18+01:00</time>
      </trkpt>
      <trkpt lat="44.52767" lon="1.67404">
        <ele>230</ele>
        <time>2021-03-13T19:36:23+01:00</time>
      </trkpt>
      <trkpt lat="44.52766" lon="1.67388">
        <ele>231</ele>
        <time>2021-03-13T19:36:28+01:00</time>
      </trkpt>
      <trkpt lat="44.52759" lon="1.67363">
        <ele>232</ele>
        <time>2021-03-13T19:36:33+01:00</time>
      </trkpt>
      <trkpt lat="44.52739" lon="1.67331">
        <ele>233</ele>
        <time>2021-03-13T19:36:38+01:00</time>
      </trkpt>
      <trkpt lat="44.52738" lon="1.67324">
        <ele>233</ele>
        <time>2021-03-13T19:36:43+01:00</time>
      </trkpt>
      <trkpt lat="44.52742" lon="1.67222">
        <ele>239</ele>
        <time>2021-03-13T19:36:48+01:00</time>
      </trkpt>
      <trkpt lat="44.5274" lon="1.67205">
        <ele>240</ele>
        <time>2021-03-13T19:36:53+01:00</time>
      </trkpt>
      <trkpt lat="44.52725" lon="1.67185">
        <ele>242</ele>
        <time>2021-03-13T19:36:58+01:00</time>
      </trkpt>
      <trkpt lat="44.52696" lon="1.67144">
        <ele>247</ele>
        <time>2021-03-13T19:37:03+01:00</time>
      </trkpt>
      <trkpt lat="44.52678" lon="1.67117">
        <ele>249</ele>
        <time>2021-03-13T19:37:08+01:00</time>
      </trkpt>
      <trkpt lat="44.52676" lon="1.67108">
        <ele>249</ele>
        <time>2021-03-13T19:37:13+01:00</time>
      </trkpt>
      <trkpt lat="44.52689" lon="1.67059">
        <ele>250</ele>
        <time>2021-03-13T19:37:18+01:00</time>
      </trkpt>
      <trkpt lat="44.52692" lon="1.67042">
        <ele>250</ele>
        <time>2021-03-13T19:37:23+01:00</time>
      </trkpt>
      <trkpt lat="44.52692" lon="1.66975">
        <ele>248</ele>
        <time>2021-03-13T19:37:28+01:00</time>
      </trkpt>
      <trkpt lat="44.52695" lon="1.66933">
        <ele>247</ele>
        <time>2021-03-13T19:37:33+01:00</time>
      </trkpt>
      <trkpt lat="44.52696" lon="1.66916">
        <ele>246</ele>
        <time>2021-03-13T19:37:38+01:00</time>
      </trkpt>
      <trkpt lat="44.52718" lon="1.66824">
        <ele>248</ele>
        <time>2021-03-13T19:37:43+01:00</time>
      </trkpt>
      <trkpt lat="44.52721" lon="1.66788">
        <ele>247</ele>
        <time>2021-03-13T19:37:48+01:00</time>
      </trkpt>
      <trkpt lat="44.52718" lon="1.66751">
        <ele>245</ele>
        <time>2021-03-13T19:37:53+01:00</time>
      </trkpt>
      <trkpt lat="44.52718" lon="1.6672">
        <ele>244</ele>
        <time>2021-03-13T19:37:58+01:00</time>
      </trkpt>
      <trkpt lat="44.52714" lon="1.667">
        <ele>243</ele>
        <time>2021-03-13T19:38:03+01:00</time>
      </trkpt>
      <trkpt lat="44.52707" lon="1.6669">
        <ele>242</ele>
        <time>2021-03-13T19:38:08+01:00</time>
      </trkpt>
      <trkpt lat="44.52706" lon="1.66689">
        <ele>242</ele>
        <time>2021-03-13T19:38:13+01:00</time>
      </trkpt>
      <trkpt lat="44.52676" lon="1.66659">
        <ele>241</ele>
        <time>2021-03-13T19:38:18+01:00</time>
      </trkpt>
      <trkpt lat="44.52669" lon="1.66642">
        <ele>241</ele>
        <time>2021-03-13T19:38:23+01:00</time>
      </trkpt>
      <trkpt lat="44.52659" lon="1.6663">
        <ele>243</ele>
        <time>2021-03-13T19:38:28+01:00</time>
      </trkpt>
      <trkpt lat="44.52594" lon="1.66529">
        <ele>253</ele>
        <time>2021-03-13T19:38:33+01:00</time>
      </trkpt>
      <trkpt lat="44.52578" lon="1.66499">
        <ele>253</ele>
        <time>2021-03-13T19:38:38+01:00</time>
      </trkpt>
      <trkpt lat="44.52567" lon="1.66478">
        <ele>255</ele>
        <time>2021-03-13T19:38:43+01:00</time>
      </trkpt>
      <trkpt lat="44.52561" lon="1.6646">
        <ele>257</ele>
        <time>2021-03-13T19:38:48+01:00</time>
      </trkpt>
      <trkpt lat="44.52537" lon="1.66415">
        <ele>260</ele>
        <time>2021-03-13T19:38:53+01:00</time>
      </trkpt>
      <trkpt lat="44.52522" lon="1.66399">
        <ele>262</ele>
        <time>2021-03-13T19:38:58+01:00</time>
      </trkpt>
      <trkpt lat="44.52507" lon="1.66391">
        <ele>264</ele>
        <time>2021-03-13T19:39:03+01:00</time>
      </trkpt>
      <trkpt lat="44.52497" lon="1.66381">
        <ele>265</ele>
        <time>2021-03-13T19:39:08+01:00</time>
      </trkpt>
      <trkpt lat="44.52491" lon="1.66367">
        <ele>266</ele>
        <time>2021-03-13T19:39:13+01:00</time>
      </trkpt>
      <trkpt lat="44.52485" lon="1.66337">
        <ele>266</ele>
        <time>2021-03-13T19:39:18+01:00</time>
      </trkpt>
      <trkpt lat="44.52444" lon="1.66227">
        <ele>274</ele>
        <time>2021-03-13T19:39:23+01:00</time>
      </trkpt>
      <trkpt lat="44.52441" lon="1.66222">
        <ele>274</ele>
        <time>2021-03-13T19:39:28+01:00</time>
      </trkpt>
      <trkpt lat="44.52437" lon="1.66224">
        <ele>275</ele>
        <time>2021-03-13T19:39:33+01:00</time>
      </trkpt>
      <trkpt lat="44.52391" lon="1.66244">
        <ele>274</ele>
        <time>2021-03-13T19:39:38+01:00</time>
      </trkpt>
      <trkpt lat="44.52362" lon="1.66259">
        <ele>272</ele>
        <time>2021-03-13T19:39:43+01:00</time>
      </trkpt>
      <trkpt lat="44.52352" lon="1.66262">
        <ele>272</ele>
        <time>2021-03-13T19:39:48+01:00</time>
      </trkpt>
      <trkpt lat="44.52285" lon="1.66286">
        <ele>269</ele>
        <time>2021-03-13T19:39:53+01:00</time>
      </trkpt>
      <trkpt lat="44.52277" lon="1.66289">
        <ele>269</ele>
        <time>2021-03-13T19:39:58+01:00</time>
      </trkpt>
      <trkpt lat="44.52267" lon="1.66284">
        <ele>268</ele>
        <time>2021-03-13T19:40:03+01:00</time>
      </trkpt>
      <trkpt lat="44.52222" lon="1.66225">
        <ele>266</ele>
        <time>2021-03-13T19:40:08+01:00</time>
      </trkpt>
      <trkpt lat="44.52183" lon="1.66199">
        <ele>266</ele>
        <time>2021-03-13T19:40:13+01:00</time>
      </trkpt>
      <trkpt lat="44.5217" lon="1.66197">
        <ele>266</ele>
        <time>2021-03-13T19:40:18+01:00</time>
      </trkpt>
      <trkpt lat="44.52133" lon="1.66148">
        <ele>267</ele>
        <time>2021-03-13T19:40:23+01:00</time>
      </trkpt>
      <trkpt lat="44.52117" lon="1.66141">
        <ele>268</ele>
        <time>2021-03-13T19:40:28+01:00</time>
      </trkpt>
      <trkpt lat="44.52097" lon="1.66143">
        <ele>269</ele>
        <time>2021-03-13T19:40:33+01:00</time>
      </trkpt>
      <trkpt lat="44.5202" lon="1.66178">
        <ele>276</ele>
        <time>2021-03-13T19:40:38+01:00</time>
      </trkpt>
      <trkpt lat="44.51992" lon="1.66178">
        <ele>278</ele>
        <time>2021-03-13T19:40:43+01:00</time>
      </trkpt>
      <trkpt lat="44.51951" lon="1.66156">
        <ele>285</ele>
        <time>2021-03-13T19:40:48+01:00</time>
      </trkpt>
      <trkpt lat="44.51909" lon="1.66105">
        <ele>288</ele>
        <time>2021-03-13T19:40:53+01:00</time>
      </trkpt>
      <trkpt lat="44.5184" lon="1.66057">
        <ele>292</ele>
        <time>2021-03-13T19:40:58+01:00</time>
      </trkpt>
      <trkpt lat="44.51777" lon="1.66039">
        <ele>290</ele>
        <time>2021-03-13T19:41:03+01:00</time>
      </trkpt>
      <trkpt lat="44.51718" lon="1.66035">
        <ele>288</ele>
        <time>2021-03-13T19:41:08+01:00</time>
      </trkpt>
      <trkpt lat="44.51692" lon="1.66033">
        <ele>287</ele>
        <time>2021-03-13T19:41:13+01:00</time>
      </trkpt>
      <trkpt lat="44.51585" lon="1.66042">
        <ele>284</ele>
        <time>2021-03-13T19:41:18+01:00</time>
      </trkpt>
      <trkpt lat="44.51565" lon="1.66047">
        <ele>283</ele>
        <time>2021-03-13T19:41:23+01:00</time>
      </trkpt>
      <trkpt lat="44.51523" lon="1.66071">
        <ele>281</ele>
        <time>2021-03-13T19:41:28+01:00</time>
      </trkpt>
      <trkpt lat="44.51502" lon="1.66085">
        <ele>279</ele>
        <time>2021-03-13T19:41:33+01:00</time>
      </trkpt>
      <trkpt lat="44.51486" lon="1.66091">
        <ele>278</ele>
        <time>2021-03-13T19:41:38+01:00</time>
      </trkpt>
      <trkpt lat="44.51476" lon="1.66095">
        <ele>277</ele>
        <time>2021-03-13T19:41:43+01:00</time>
      </trkpt>
      <trkpt lat="44.51467" lon="1.66094">
        <ele>276</ele>
        <time>2021-03-13T19:41:48+01:00</time>
      </trkpt>
      <trkpt lat="44.5137" lon="1.66121">
        <ele>267</ele>
        <time>2021-03-13T19:41:53+01:00</time>
      </trkpt>
      <trkpt lat="44.51351" lon="1.66123">
        <ele>264</ele>
        <time>2021-03-13T19:41:58+01:00</time>
      </trkpt>
      <trkpt lat="44.51325" lon="1.66134">
        <ele>261</ele>
        <time>2021-03-13T19:42:03+01:00</time>
      </trkpt>
      <trkpt lat="44.51282" lon="1.66154">
        <ele>256</ele>
        <time>2021-03-13T19:42:08+01:00</time>
      </trkpt>
      <trkpt lat="44.51245" lon="1.66166">
        <ele>252</ele>
        <time>2021-03-13T19:42:13+01:00</time>
      </trkpt>
      <trkpt lat="44.51206" lon="1.66172">
        <ele>246</ele>
        <time>2021-03-13T19:42:18+01:00</time>
      </trkpt>
      <trkpt lat="44.5117" lon="1.6619">
        <ele>239</ele>
        <time>2021-03-13T19:42:23+01:00</time>
      </trkpt>
      <trkpt lat="44.51146" lon="1.66212">
        <ele>237</ele>
        <time>2021-03-13T19:42:28+01:00</time>
      </trkpt>
      <trkpt lat="44.51115" lon="1.66229">
        <ele>235</ele>
        <time>2021-03-13T19:42:33+01:00</time>
      </trkpt>
      <trkpt lat="44.51104" lon="1.66229">
        <ele>234</ele>
        <time>2021-03-13T19:42:38+01:00</time>
      </trkpt>
      <trkpt lat="44.5109" lon="1.66234">
        <ele>233</ele>
        <time>2021-03-13T19:42:43+01:00</time>
      </trkpt>
      <trkpt lat="44.51074" lon="1.6623">
        <ele>231</ele>
        <time>2021-03-13T19:42:48+01:00</time>
      </trkpt>
      <trkpt lat="44.51063" lon="1.66233">
        <ele>230</ele>
        <time>2021-03-13T19:42:53+01:00</time>
      </trkpt>
      <trkpt lat="44.51033" lon="1.66237">
        <ele>227</ele>
        <time>2021-03-13T19:42:58+01:00</time>
      </trkpt>
      <trkpt lat="44.51018" lon="1.66244">
        <ele>226</ele>
        <time>2021-03-13T19:43:03+01:00</time>
      </trkpt>
      <trkpt lat="44.50985" lon="1.66279">
        <ele>217</ele>
        <time>2021-03-13T19:43:08+01:00</time>
      </trkpt>
      <trkpt lat="44.50983" lon="1.6629">
        <ele>216</ele>
        <time>2021-03-13T19:43:13+01:00</time>
      </trkpt>
      <trkpt lat="44.51015" lon="1.66296">
        <ele>219</ele>
        <time>2021-03-13T19:43:18+01:00</time>
      </trkpt>
      <trkpt lat="44.51014" lon="1.66314">
        <ele>216</ele>
        <time>2021-03-13T19:43:23+01:00</time>
      </trkpt>
      <trkpt lat="44.5099" lon="1.66316">
        <ele>213</ele>
        <time>2021-03-13T19:43:28+01:00</time>
      </trkpt>
      <trkpt lat="44.50968" lon="1.66324">
        <ele>209</ele>
        <time>2021-03-13T19:43:33+01:00</time>
      </trkpt>
      <trkpt lat="44.50936" lon="1.66328">
        <ele>204</ele>
        <time>2021-03-13T19:43:38+01:00</time>
      </trkpt>
      <trkpt lat="44.50929" lon="1.66336">
        <ele>201</ele>
        <time>2021-03-13T19:43:43+01:00</time>
      </trkpt>
      <trkpt lat="44.50918" lon="1.66342">
        <ele>196</ele>
        <time>2021-03-13T19:43:48+01:00</time>
      </trkpt>
      <trkpt lat="44.50904" lon="1.66319">
        <ele>197</ele>
        <time>2021-03-13T19:43:53+01:00</time>
      </trkpt>
      <trkpt lat="44.50896" lon="1.66334">
        <ele>193</ele>
        <time>2021-03-13T19:43:58+01:00</time>
      </trkpt>
      <trkpt lat="44.50888" lon="1.66366">
        <ele>175</ele>
        <time>2021-03-13T19:44:03+01:00</time>
      </trkpt>
      <trkpt lat="44.50885" lon="1.66366">
        <ele>174</ele>
        <time>2021-03-13T19:44:08+01:00</time>
      </trkpt>
      <trkpt lat="44.50878" lon="1.66353">
        <ele>178</ele>
        <time>2021-03-13T19:44:13+01:00</time>
      </trkpt>
      <trkpt lat="44.50874" lon="1.66336">
        <ele>184</ele>
        <time>2021-03-13T19:44:18+01:00</time>
      </trkpt>
      <trkpt lat="44.50873" lon="1.66324">
        <ele>184</ele>
        <time>2021-03-13T19:44:23+01:00</time>
      </trkpt>
      <trkpt lat="44.50873" lon="1.66303">
        <ele>185</ele>
        <time>2021-03-13T19:44:28+01:00</time>
      </trkpt>
      <trkpt lat="44.50868" lon="1.66312">
        <ele>183</ele>
        <time>2021-03-13T19:44:33+01:00</time>
      </trkpt>
      <trkpt lat="44.50867" lon="1.66323">
        <ele>182</ele>
        <time>2021-03-13T19:44:38+01:00</time>
      </trkpt>
      <trkpt lat="44.50865" lon="1.66324">
        <ele>181</ele>
        <time>2021-03-13T19:44:43+01:00</time>
      </trkpt>
      <trkpt lat="44.50863" lon="1.66317">
        <ele>181</ele>
        <time>2021-03-13T19:44:48+01:00</time>
      </trkpt>
      <trkpt lat="44.50855" lon="1.66264">
        <ele>177</ele>
        <time>2021-03-13T19:44:53+01:00</time>
      </trkpt>
      <trkpt lat="44.50854" lon="1.66216">
        <ele>171</ele>
        <time>2021-03-13T19:44:58+01:00</time>
      </trkpt>
      <trkpt lat="44.50855" lon="1.66207">
        <ele>170</ele>
        <time>2021-03-13T19:45:03+01:00</time>
      </trkpt>
      <trkpt lat="44.50853" lon="1.66198">
        <ele>168</ele>
        <time>2021-03-13T19:45:08+01:00</time>
      </trkpt>
      <trkpt lat="44.50855" lon="1.66188">
        <ele>168</ele>
        <time>2021-03-13T19:45:13+01:00</time>
      </trkpt>
      <trkpt lat="44.50859" lon="1.66177">
        <ele>168</ele>
        <time>2021-03-13T19:45:18+01:00</time>
      </trkpt>
      <trkpt lat="44.50859" lon="1.66167">
        <ele>167</ele>
        <time>2021-03-13T19:45:23+01:00</time>
      </trkpt>
      <trkpt lat="44.50863" lon="1.66138">
        <ele>163</ele>
        <time>2021-03-13T19:45:28+01:00</time>
      </trkpt>
      <trkpt lat="44.50862" lon="1.6612">
        <ele>160</ele>
        <time>2021-03-13T19:45:33+01:00</time>
      </trkpt>
      <trkpt lat="44.50863" lon="1.661">
        <ele>157</ele>
        <time>2021-03-13T19:45:38+01:00</time>
      </trkpt>
      <trkpt lat="44.50866" lon="1.66095">
        <ele>157</ele>
        <time>2021-03-13T19:45:43+01:00</time>
      </trkpt>
      <trkpt lat="44.50868" lon="1.66087">
        <ele>156</ele>
        <time>2021-03-13T19:45:48+01:00</time>
      </trkpt>
      <trkpt lat="44.50872" lon="1.66075">
        <ele>157</ele>
        <time>2021-03-13T19:45:53+01:00</time>
      </trkpt>
      <trkpt lat="44.50872" lon="1.66074">
        <ele>157</ele>
        <time>2021-03-13T19:45:58+01:00</time>
      </trkpt>
      <trkpt lat="44.50877" lon="1.66063">
        <ele>159</ele>
        <time>2021-03-13T19:46:03+01:00</time>
      </trkpt>
      <trkpt lat="44.5089" lon="1.66045">
        <ele>163</ele>
        <time>2021-03-13T19:46:08+01:00</time>
      </trkpt>
      <trkpt lat="44.50893" lon="1.66033">
        <ele>164</ele>
        <time>2021-03-13T19:46:13+01:00</time>
      </trkpt>
      <trkpt lat="44.50892" lon="1.66024">
        <ele>164</ele>
        <time>2021-03-13T19:46:18+01:00</time>
      </trkpt>
      <trkpt lat="44.50884" lon="1.6599">
        <ele>161</ele>
        <time>2021-03-13T19:46:23+01:00</time>
      </trkpt>
      <trkpt lat="44.50876" lon="1.65918">
        <ele>170</ele>
        <time>2021-03-13T19:46:28+01:00</time>
      </trkpt>
      <trkpt lat="44.5087" lon="1.65903">
        <ele>172</ele>
        <time>2021-03-13T19:46:33+01:00</time>
      </trkpt>
      <trkpt lat="44.50862" lon="1.65886">
        <ele>172</ele>
        <time>2021-03-13T19:46:38+01:00</time>
      </trkpt>
      <trkpt lat="44.50858" lon="1.65879">
        <ele>172</ele>
        <time>2021-03-13T19:46:43+01:00</time>
      </trkpt>
      <trkpt lat="44.50855" lon="1.65879">
        <ele>170</ele>
        <time>2021-03-13T19:46:48+01:00</time>
      </trkpt>
      <trkpt lat="44.50854" lon="1.65878">
        <ele>170</ele>
        <time>2021-03-13T19:46:53+01:00</time>
      </trkpt>
      <trkpt lat="44.50847" lon="1.65863">
        <ele>169</ele>
        <time>2021-03-13T19:46:58+01:00</time>
      </trkpt>
      <trkpt lat="44.50833" lon="1.65837">
        <ele>167</ele>
        <time>2021-03-13T19:47:03+01:00</time>
      </trkpt>
      <trkpt lat="44.50821" lon="1.65816">
        <ele>172</ele>
        <time>2021-03-13T19:47:08+01:00</time>
      </trkpt>
      <trkpt lat="44.50806" lon="1.65795">
        <ele>174</ele>
        <time>2021-03-13T19:47:13+01:00</time>
      </trkpt>
      <trkpt lat="44.50785" lon="1.6577">
        <ele>171</ele>
        <time>2021-03-13T19:47:18+01:00</time>
      </trkpt>
      <trkpt lat="44.50774" lon="1.65757">
        <ele>167</ele>
        <time>2021-03-13T19:47:23+01:00</time>
      </trkpt>
      <trkpt lat="44.50762" lon="1.65745">
        <ele>163</ele>
        <time>2021-03-13T19:47:28+01:00</time>
      </trkpt>
      <trkpt lat="44.50736" lon="1.6572">
        <ele>165</ele>
        <time>2021-03-13T19:47:33+01:00</time>
      </trkpt>
      <trkpt lat="44.50719" lon="1.65705">
        <ele>165</ele>
        <time>2021-03-13T19:47:38+01:00</time>
      </trkpt>
      <trkpt lat="44.50716" lon="1.65703">
        <ele>164</ele>
        <time>2021-03-13T19:47:43+01:00</time>
      </trkpt>
      <trkpt lat="44.5072" lon="1.65691">
        <ele>171</ele>
        <time>2021-03-13T19:47:48+01:00</time>
      </trkpt>
      <trkpt lat="44.50702" lon="1.65674">
        <ele>167</ele>
        <time>2021-03-13T19:47:53+01:00</time>
      </trkpt>
      <trkpt lat="44.50669" lon="1.65659">
        <ele>150</ele>
        <time>2021-03-13T19:47:58+01:00</time>
      </trkpt>
      <trkpt lat="44.50654" lon="1.65646">
        <ele>150</ele>
        <time>2021-03-13T19:48:03+01:00</time>
      </trkpt>
      <trkpt lat="44.50645" lon="1.65635">
        <ele>151</ele>
        <time>2021-03-13T19:48:08+01:00</time>
      </trkpt>
      <trkpt lat="44.50638" lon="1.65624">
        <ele>152</ele>
        <time>2021-03-13T19:48:13+01:00</time>
      </trkpt>
      <trkpt lat="44.50633" lon="1.65608">
        <ele>154</ele>
        <time>2021-03-13T19:48:18+01:00</time>
      </trkpt>
      <trkpt lat="44.50633" lon="1.65573">
        <ele>158</ele>
        <time>2021-03-13T19:48:23+01:00</time>
      </trkpt>
      <trkpt lat="44.5063" lon="1.65569">
        <ele>157</ele>
        <time>2021-03-13T19:48:28+01:00</time>
      </trkpt>
      <trkpt lat="44.50615" lon="1.65539">
        <ele>154</ele>
        <time>2021-03-13T19:48:33+01:00</time>
      </trkpt>
      <trkpt lat="44.5061" lon="1.65532">
        <ele>154</ele>
        <time>2021-03-13T19:48:38+01:00</time>
      </trkpt>
      <trkpt lat="44.50607" lon="1.65528">
        <ele>153</ele>
        <time>2021-03-13T19:48:43+01:00</time>
      </trkpt>
      <trkpt lat="44.50602" lon="1.65526">
        <ele>153</ele>
        <time>2021-03-13T19:48:48+01:00</time>
      </trkpt>
      <trkpt lat="44.50592" lon="1.65524">
        <ele>151</ele>
        <time>2021-03-13T19:48:53+01:00</time>
      </trkpt>
      <trkpt lat="44.50583" lon="1.65522">
        <ele>150</ele>
        <time>2021-03-13T19:48:58+01:00</time>
      </trkpt>
      <trkpt lat="44.50577" lon="1.65518">
        <ele>149</ele>
        <time>2021-03-13T19:49:03+01:00</time>
      </trkpt>
      <trkpt lat="44.50559" lon="1.65511">
        <ele>148</ele>
        <time>2021-03-13T19:49:08+01:00</time>
      </trkpt>
      <trkpt lat="44.50561" lon="1.65506">
        <ele>149</ele>
        <time>2021-03-13T19:49:13+01:00</time>
      </trkpt>
      <trkpt lat="44.50563" lon="1.65504">
        <ele>149</ele>
        <time>2021-03-13T19:49:18+01:00</time>
      </trkpt>
      <trkpt lat="44.50562" lon="1.65499">
        <ele>149</ele>
        <time>2021-03-13T19:49:23+01:00</time>
      </trkpt>
      <trkpt lat="44.50564" lon="1.65497">
        <ele>150</ele>
        <time>2021-03-13T19:49:28+01:00</time>
      </trkpt>
      <trkpt lat="44.50564" lon="1.65493">
        <ele>150</ele>
        <time>2021-03-13T19:49:33+01:00</time>
      </trkpt>
      <trkpt lat="44.50567" lon="1.65487">
        <ele>150</ele>
        <time>2021-03-13T19:49:38+01:00</time>
      </trkpt>
      <trkpt lat="44.50571" lon="1.65481">
        <ele>151</ele>
        <time>2021-03-13T19:49:43+01:00</time>
      </trkpt>
      <trkpt lat="44.50574" lon="1.65471">
        <ele>151</ele>
        <time>2021-03-13T19:49:48+01:00</time>
      </trkpt>
      <trkpt lat="44.50573" lon="1.65456">
        <ele>151</ele>
        <time>2021-03-13T19:49:53+01:00</time>
      </trkpt>
      <trkpt lat="44.50557" lon="1.65409">
        <ele>152</ele>
        <time>2021-03-13T19:49:58+01:00</time>
      </trkpt>
      <trkpt lat="44.50552" lon="1.65397">
        <ele>153</ele>
        <time>2021-03-13T19:50:03+01:00</time>
      </trkpt>
      <trkpt lat="44.50542" lon="1.65384">
        <ele>154</ele>
        <time>2021-03-13T19:50:08+01:00</time>
      </trkpt>
      <trkpt lat="44.50534" lon="1.65382">
        <ele>155</ele>
        <time>2021-03-13T19:50:13+01:00</time>
      </trkpt>
      <trkpt lat="44.50534" lon="1.65375">
        <ele>156</ele>
        <time>2021-03-13T19:50:18+01:00</time>
      </trkpt>
      <trkpt lat="44.5053" lon="1.65373">
        <ele>156</ele>
        <time>2021-03-13T19:50:23+01:00</time>
      </trkpt>
      <trkpt lat="44.50515" lon="1.6529">
        <ele>165</ele>
        <time>2021-03-13T19:50:28+01:00</time>
      </trkpt>
      <trkpt lat="44.5051" lon="1.65263">
        <ele>168</ele>
        <time>2021-03-13T19:50:33+01:00</time>
      </trkpt>
      <trkpt lat="44.50509" lon="1.65243">
        <ele>171</ele>
        <time>2021-03-13T19:50:38+01:00</time>
      </trkpt>
      <trkpt lat="44.5051" lon="1.65217">
        <ele>177</ele>
        <time>2021-03-13T19:50:43+01:00</time>
      </trkpt>
      <trkpt lat="44.50514" lon="1.65202">
        <ele>180</ele>
        <time>2021-03-13T19:50:48+01:00</time>
      </trkpt>
      <trkpt lat="44.50521" lon="1.65188">
        <ele>183</ele>
        <time>2021-03-13T19:50:53+01:00</time>
      </trkpt>
      <trkpt lat="44.50522" lon="1.65187">
        <ele>183</ele>
        <time>2021-03-13T19:50:58+01:00</time>
      </trkpt>
      <trkpt lat="44.50553" lon="1.65156">
        <ele>187</ele>
        <time>2021-03-13T19:51:03+01:00</time>
      </trkpt>
      <trkpt lat="44.50582" lon="1.65115">
        <ele>197</ele>
        <time>2021-03-13T19:51:08+01:00</time>
      </trkpt>
      <trkpt lat="44.50608" lon="1.65093">
        <ele>198</ele>
        <time>2021-03-13T19:51:13+01:00</time>
      </trkpt>
      <trkpt lat="44.50615" lon="1.65087">
        <ele>198</ele>
        <time>2021-03-13T19:51:18+01:00</time>
      </trkpt>
      <trkpt lat="44.50642" lon="1.65044">
        <ele>205</ele>
        <time>2021-03-13T19:51:23+01:00</time>
      </trkpt>
      <trkpt lat="44.50651" lon="1.65021">
        <ele>210</ele>
        <time>2021-03-13T19:51:28+01:00</time>
      </trkpt>
      <trkpt lat="44.50665" lon="1.65006">
        <ele>211</ele>
        <time>2021-03-13T19:51:33+01:00</time>
      </trkpt>
      <trkpt lat="44.50681" lon="1.64955">
        <ele>219</ele>
        <time>2021-03-13T19:51:38+01:00</time>
      </trkpt>
      <trkpt lat="44.50692" lon="1.64939">
        <ele>220</ele>
        <time>2021-03-13T19:51:43+01:00</time>
      </trkpt>
      <trkpt lat="44.50702" lon="1.64927">
        <ele>220</ele>
        <time>2021-03-13T19:51:48+01:00</time>
      </trkpt>
      <trkpt lat="44.50724" lon="1.64892">
        <ele>223</ele>
        <time>2021-03-13T19:51:53+01:00</time>
      </trkpt>
      <trkpt lat="44.5073" lon="1.64878">
        <ele>225</ele>
        <time>2021-03-13T19:51:58+01:00</time>
      </trkpt>
      <trkpt lat="44.50735" lon="1.64861">
        <ele>228</ele>
        <time>2021-03-13T19:52:03+01:00</time>
      </trkpt>
      <trkpt lat="44.5074" lon="1.64819">
        <ele>239</ele>
        <time>2021-03-13T19:52:08+01:00</time>
      </trkpt>
      <trkpt lat="44.5075" lon="1.64787">
        <ele>243</ele>
        <time>2021-03-13T19:52:13+01:00</time>
      </trkpt>
      <trkpt lat="44.50752" lon="1.64771">
        <ele>246</ele>
        <time>2021-03-13T19:52:18+01:00</time>
      </trkpt>
      <trkpt lat="44.50758" lon="1.64746">
        <ele>250</ele>
        <time>2021-03-13T19:52:23+01:00</time>
      </trkpt>
      <trkpt lat="44.50763" lon="1.64737">
        <ele>250</ele>
        <time>2021-03-13T19:52:28+01:00</time>
      </trkpt>
      <trkpt lat="44.50764" lon="1.64728">
        <ele>252</ele>
        <time>2021-03-13T19:52:33+01:00</time>
      </trkpt>
      <trkpt lat="44.50764" lon="1.64713">
        <ele>254</ele>
        <time>2021-03-13T19:52:38+01:00</time>
      </trkpt>
      <trkpt lat="44.50768" lon="1.64695">
        <ele>257</ele>
        <time>2021-03-13T19:52:43+01:00</time>
      </trkpt>
      <trkpt lat="44.50769" lon="1.64672">
        <ele>260</ele>
        <time>2021-03-13T19:52:48+01:00</time>
      </trkpt>
      <trkpt lat="44.50762" lon="1.64634">
        <ele>267</ele>
        <time>2021-03-13T19:52:53+01:00</time>
      </trkpt>
      <trkpt lat="44.50768" lon="1.64557">
        <ele>275</ele>
        <time>2021-03-13T19:52:58+01:00</time>
      </trkpt>
      <trkpt lat="44.50767" lon="1.64527">
        <ele>278</ele>
        <time>2021-03-13T19:53:03+01:00</time>
      </trkpt>
      <trkpt lat="44.50766" lon="1.64513">
        <ele>280</ele>
        <time>2021-03-13T19:53:08+01:00</time>
      </trkpt>
      <trkpt lat="44.50761" lon="1.64493">
        <ele>282</ele>
        <time>2021-03-13T19:53:13+01:00</time>
      </trkpt>
      <trkpt lat="44.50756" lon="1.64483">
        <ele>283</ele>
        <time>2021-03-13T19:53:18+01:00</time>
      </trkpt>
      <trkpt lat="44.50753" lon="1.64471">
        <ele>285</ele>
        <time>2021-03-13T19:53:23+01:00</time>
      </trkpt>
      <trkpt lat="44.50759" lon="1.64464">
        <ele>285</ele>
        <time>2021-03-13T19:53:28+01:00</time>
      </trkpt>
      <trkpt lat="44.50752" lon="1.64453">
        <ele>286</ele>
        <time>2021-03-13T19:53:33+01:00</time>
      </trkpt>
      <trkpt lat="44.50754" lon="1.64448">
        <ele>287</ele>
        <time>2021-03-13T19:53:38+01:00</time>
      </trkpt>
      <trkpt lat="44.50762" lon="1.64445">
        <ele>287</ele>
        <time>2021-03-13T19:53:43+01:00</time>
      </trkpt>
      <trkpt lat="44.50768" lon="1.6444">
        <ele>287</ele>
        <time>2021-03-13T19:53:48+01:00</time>
      </trkpt>
      <trkpt lat="44.50777" lon="1.64432">
        <ele>288</ele>
        <time>2021-03-13T19:53:53+01:00</time>
      </trkpt>
      <trkpt lat="44.50781" lon="1.64435">
        <ele>288</ele>
        <time>2021-03-13T19:53:58+01:00</time>
      </trkpt>
      <trkpt lat="44.50785" lon="1.64439">
        <ele>287</ele>
        <time>2021-03-13T19:54:03+01:00</time>
      </trkpt>
      <trkpt lat="44.50785" lon="1.64435">
        <ele>288</ele>
        <time>2021-03-13T19:54:08+01:00</time>
      </trkpt>
      <trkpt lat="44.50789" lon="1.64425">
        <ele>289</ele>
        <time>2021-03-13T19:54:13+01:00</time>
      </trkpt>
      <trkpt lat="44.50799" lon="1.64428">
        <ele>288</ele>
        <time>2021-03-13T19:54:18+01:00</time>
      </trkpt>
      <trkpt lat="44.50818" lon="1.64437">
        <ele>287</ele>
        <time>2021-03-13T19:54:23+01:00</time>
      </trkpt>
      <trkpt lat="44.50831" lon="1.64425">
        <ele>288</ele>
        <time>2021-03-13T19:54:28+01:00</time>
      </trkpt>
      <trkpt lat="44.5084" lon="1.64426">
        <ele>287</ele>
        <time>2021-03-13T19:54:33+01:00</time>
      </trkpt>
      <trkpt lat="44.50847" lon="1.64423">
        <ele>287</ele>
        <time>2021-03-13T19:54:38+01:00</time>
      </trkpt>
      <trkpt lat="44.50862" lon="1.644">
        <ele>288</ele>
        <time>2021-03-13T19:54:43+01:00</time>
      </trkpt>
      <trkpt lat="44.50868" lon="1.64392">
        <ele>287</ele>
        <time>2021-03-13T19:54:48+01:00</time>
      </trkpt>
      <trkpt lat="44.50872" lon="1.64379">
        <ele>288</ele>
        <time>2021-03-13T19:54:53+01:00</time>
      </trkpt>
      <trkpt lat="44.50868" lon="1.64392">
        <ele>287</ele>
        <time>2021-03-13T19:54:58+01:00</time>
      </trkpt>
      <trkpt lat="44.50862" lon="1.644">
        <ele>288</ele>
        <time>2021-03-13T19:55:03+01:00</time>
      </trkpt>
      <trkpt lat="44.50864" lon="1.64392">
        <ele>288</ele>
        <time>2021-03-13T19:55:08+01:00</time>
      </trkpt>
      <trkpt lat="44.5086" lon="1.64387">
        <ele>289</ele>
        <time>2021-03-13T19:55:13+01:00</time>
      </trkpt>
      <trkpt lat="44.5085" lon="1.64383">
        <ele>290</ele>
        <time>2021-03-13T19:55:18+01:00</time>
      </trkpt>
      <trkpt lat="44.50827" lon="1.64365">
        <ele>294</ele>
        <time>2021-03-13T19:55:23+01:00</time>
      </trkpt>
      <trkpt lat="44.50817" lon="1.64351">
        <ele>295</ele>
        <time>2021-03-13T19:55:28+01:00</time>
      </trkpt>
      <trkpt lat="44.50809" lon="1.64337">
        <ele>297</ele>
        <time>2021-03-13T19:55:33+01:00</time>
      </trkpt>
      <trkpt lat="44.508" lon="1.64305">
        <ele>299</ele>
        <time>2021-03-13T19:55:38+01:00</time>
      </trkpt>
      <trkpt lat="44.50793" lon="1.64274">
        <ele>301</ele>
        <time>2021-03-13T19:55:43+01:00</time>
      </trkpt>
      <trkpt lat="44.50785" lon="1.64247">
        <ele>303</ele>
        <time>2021-03-13T19:55:48+01:00</time>
      </trkpt>
      <trkpt lat="44.50776" lon="1.64222">
        <ele>305</ele>
        <time>2021-03-13T19:55:53+01:00</time>
      </trkpt>
      <trkpt lat="44.50767" lon="1.642">
        <ele>306</ele>
        <time>2021-03-13T19:55:58+01:00</time>
      </trkpt>
      <trkpt lat="44.50755" lon="1.64178">
        <ele>309</ele>
        <time>2021-03-13T19:56:03+01:00</time>
      </trkpt>
      <trkpt lat="44.50724" lon="1.64174">
        <ele>314</ele>
        <time>2021-03-13T19:56:08+01:00</time>
      </trkpt>
      <trkpt lat="44.50688" lon="1.64175">
        <ele>319</ele>
        <time>2021-03-13T19:56:13+01:00</time>
      </trkpt>
      <trkpt lat="44.50643" lon="1.64172">
        <ele>327</ele>
        <time>2021-03-13T19:56:18+01:00</time>
      </trkpt>
      <trkpt lat="44.50639" lon="1.64174">
        <ele>328</ele>
        <time>2021-03-13T19:56:23+01:00</time>
      </trkpt>
      <trkpt lat="44.50617" lon="1.64231">
        <ele>329</ele>
        <time>2021-03-13T19:56:28+01:00</time>
      </trkpt>
      <trkpt lat="44.50589" lon="1.64286">
        <ele>331</ele>
        <time>2021-03-13T19:56:33+01:00</time>
      </trkpt>
      <trkpt lat="44.50584" lon="1.64301">
        <ele>331</ele>
        <time>2021-03-13T19:56:38+01:00</time>
      </trkpt>
      <trkpt lat="44.50569" lon="1.64425">
        <ele>327</ele>
        <time>2021-03-13T19:56:43+01:00</time>
      </trkpt>
      <trkpt lat="44.50562" lon="1.6445">
        <ele>327</ele>
        <time>2021-03-13T19:56:48+01:00</time>
      </trkpt>
      <trkpt lat="44.50543" lon="1.64492">
        <ele>327</ele>
        <time>2021-03-13T19:56:53+01:00</time>
      </trkpt>
      <trkpt lat="44.50509" lon="1.64553">
        <ele>325</ele>
        <time>2021-03-13T19:56:58+01:00</time>
      </trkpt>
      <trkpt lat="44.50497" lon="1.64572">
        <ele>324</ele>
        <time>2021-03-13T19:57:03+01:00</time>
      </trkpt>
      <trkpt lat="44.50469" lon="1.64606">
        <ele>321</ele>
        <time>2021-03-13T19:57:08+01:00</time>
      </trkpt>
      <trkpt lat="44.50448" lon="1.64614">
        <ele>321</ele>
        <time>2021-03-13T19:57:13+01:00</time>
      </trkpt>
      <trkpt lat="44.50428" lon="1.64615">
        <ele>322</ele>
        <time>2021-03-13T19:57:18+01:00</time>
      </trkpt>
      <trkpt lat="44.50335" lon="1.64585">
        <ele>330</ele>
        <time>2021-03-13T19:57:23+01:00</time>
      </trkpt>
      <trkpt lat="44.50256" lon="1.64592">
        <ele>336</ele>
        <time>2021-03-13T19:57:28+01:00</time>
      </trkpt>
      <trkpt lat="44.50172" lon="1.64645">
        <ele>326</ele>
        <time>2021-03-13T19:57:33+01:00</time>
      </trkpt>
      <trkpt lat="44.50159" lon="1.64647">
        <ele>325</ele>
        <time>2021-03-13T19:57:38+01:00</time>
      </trkpt>
      <trkpt lat="44.50116" lon="1.64639">
        <ele>327</ele>
        <time>2021-03-13T19:57:43+01:00</time>
      </trkpt>
      <trkpt lat="44.50107" lon="1.64636">
        <ele>328</ele>
        <time>2021-03-13T19:57:48+01:00</time>
      </trkpt>
      <trkpt lat="44.50097" lon="1.64622">
        <ele>329</ele>
        <time>2021-03-13T19:57:53+01:00</time>
      </trkpt>
      <trkpt lat="44.50075" lon="1.64557">
        <ele>336</ele>
        <time>2021-03-13T19:57:58+01:00</time>
      </trkpt>
      <trkpt lat="44.50065" lon="1.64541">
        <ele>336</ele>
        <time>2021-03-13T19:58:03+01:00</time>
      </trkpt>
      <trkpt lat="44.50058" lon="1.64534">
        <ele>336</ele>
        <time>2021-03-13T19:58:08+01:00</time>
      </trkpt>
      <trkpt lat="44.50057" lon="1.64534">
        <ele>336</ele>
        <time>2021-03-13T19:58:13+01:00</time>
      </trkpt>
      <trkpt lat="44.50049" lon="1.6453">
        <ele>336</ele>
        <time>2021-03-13T19:58:18+01:00</time>
      </trkpt>
      <trkpt lat="44.50028" lon="1.64526">
        <ele>335</ele>
        <time>2021-03-13T19:58:23+01:00</time>
      </trkpt>
      <trkpt lat="44.50015" lon="1.6452">
        <ele>335</ele>
        <time>2021-03-13T19:58:28+01:00</time>
      </trkpt>
      <trkpt lat="44.49968" lon="1.6449">
        <ele>334</ele>
        <time>2021-03-13T19:58:33+01:00</time>
      </trkpt>
      <trkpt lat="44.49938" lon="1.64466">
        <ele>332</ele>
        <time>2021-03-13T19:58:38+01:00</time>
      </trkpt>
      <trkpt lat="44.49908" lon="1.64439">
        <ele>330</ele>
        <time>2021-03-13T19:58:43+01:00</time>
      </trkpt>
      <trkpt lat="44.49883" lon="1.64407">
        <ele>329</ele>
        <time>2021-03-13T19:58:48+01:00</time>
      </trkpt>
      <trkpt lat="44.49872" lon="1.64397">
        <ele>328</ele>
        <time>2021-03-13T19:58:53+01:00</time>
      </trkpt>
      <trkpt lat="44.49857" lon="1.64377">
        <ele>327</ele>
        <time>2021-03-13T19:58:58+01:00</time>
      </trkpt>
      <trkpt lat="44.49849" lon="1.64366">
        <ele>326</ele>
        <time>2021-03-13T19:59:03+01:00</time>
      </trkpt>
      <trkpt lat="44.49827" lon="1.64331">
        <ele>323</ele>
        <time>2021-03-13T19:59:08+01:00</time>
      </trkpt>
      <trkpt lat="44.49818" lon="1.64312">
        <ele>322</ele>
        <time>2021-03-13T19:59:13+01:00</time>
      </trkpt>
      <trkpt lat="44.49811" lon="1.64281">
        <ele>323</ele>
        <time>2021-03-13T19:59:18+01:00</time>
      </trkpt>
      <trkpt lat="44.49806" lon="1.64273">
        <ele>322</ele>
        <time>2021-03-13T19:59:23+01:00</time>
      </trkpt>
      <trkpt lat="44.49797" lon="1.64265">
        <ele>322</ele>
        <time>2021-03-13T19:59:28+01:00</time>
      </trkpt>
      <trkpt lat="44.49758" lon="1.64261">
        <ele>318</ele>
        <time>2021-03-13T19:59:33+01:00</time>
      </trkpt>
      <trkpt lat="44.49734" lon="1.64238">
        <ele>318</ele>
        <time>2021-03-13T19:59:38+01:00</time>
      </trkpt>
      <trkpt lat="44.49704" lon="1.64224">
        <ele>316</ele>
        <time>2021-03-13T19:59:43+01:00</time>
      </trkpt>
      <trkpt lat="44.49674" lon="1.64227">
        <ele>314</ele>
        <time>2021-03-13T19:59:48+01:00</time>
      </trkpt>
      <trkpt lat="44.4962" lon="1.64238">
        <ele>307</ele>
        <time>2021-03-13T19:59:53+01:00</time>
      </trkpt>
      <trkpt lat="44.4954" lon="1.64276">
        <ele>294</ele>
        <time>2021-03-13T19:59:58+01:00</time>
      </trkpt>
      <trkpt lat="44.49521" lon="1.6429">
        <ele>291</ele>
        <time>2021-03-13T20:00:03+01:00</time>
      </trkpt>
      <trkpt lat="44.4948" lon="1.64326">
        <ele>284</ele>
        <time>2021-03-13T20:00:08+01:00</time>
      </trkpt>
      <trkpt lat="44.49423" lon="1.64342">
        <ele>275</ele>
        <time>2021-03-13T20:00:13+01:00</time>
      </trkpt>
      <trkpt lat="44.49388" lon="1.64348">
        <ele>269</ele>
        <time>2021-03-13T20:00:18+01:00</time>
      </trkpt>
      <trkpt lat="44.49357" lon="1.64343">
        <ele>264</ele>
        <time>2021-03-13T20:00:23+01:00</time>
      </trkpt>
      <trkpt lat="44.49342" lon="1.64343">
        <ele>261</ele>
        <time>2021-03-13T20:00:28+01:00</time>
      </trkpt>
      <trkpt lat="44.49336" lon="1.64349">
        <ele>260</ele>
        <time>2021-03-13T20:00:33+01:00</time>
      </trkpt>
      <trkpt lat="44.49333" lon="1.64343">
        <ele>259</ele>
        <time>2021-03-13T20:00:38+01:00</time>
      </trkpt>
      <trkpt lat="44.49336" lon="1.64349">
        <ele>260</ele>
        <time>2021-03-13T20:00:43+01:00</time>
      </trkpt>
      <trkpt lat="44.49342" lon="1.64389">
        <ele>258</ele>
        <time>2021-03-13T20:00:48+01:00</time>
      </trkpt>
      <trkpt lat="44.49354" lon="1.64428">
        <ele>258</ele>
        <time>2021-03-13T20:00:53+01:00</time>
      </trkpt>
      <trkpt lat="44.49389" lon="1.64488">
        <ele>258</ele>
        <time>2021-03-13T20:00:58+01:00</time>
      </trkpt>
      <trkpt lat="44.49396" lon="1.64512">
        <ele>258</ele>
        <time>2021-03-13T20:01:03+01:00</time>
      </trkpt>
      <trkpt lat="44.49396" lon="1.64536">
        <ele>258</ele>
        <time>2021-03-13T20:01:08+01:00</time>
      </trkpt>
      <trkpt lat="44.494" lon="1.64569">
        <ele>259</ele>
        <time>2021-03-13T20:01:13+01:00</time>
      </trkpt>
      <trkpt lat="44.49408" lon="1.64601">
        <ele>261</ele>
        <time>2021-03-13T20:01:18+01:00</time>
      </trkpt>
      <trkpt lat="44.49409" lon="1.64604">
        <ele>261</ele>
        <time>2021-03-13T20:01:23+01:00</time>
      </trkpt>
      <trkpt lat="44.49415" lon="1.64623">
        <ele>262</ele>
        <time>2021-03-13T20:01:28+01:00</time>
      </trkpt>
      <trkpt lat="44.49423" lon="1.64639">
        <ele>263</ele>
        <time>2021-03-13T20:01:33+01:00</time>
      </trkpt>
      <trkpt lat="44.49436" lon="1.64675">
        <ele>265</ele>
        <time>2021-03-13T20:01:38+01:00</time>
      </trkpt>
      <trkpt lat="44.49449" lon="1.64727">
        <ele>267</ele>
        <time>2021-03-13T20:01:43+01:00</time>
      </trkpt>
      <trkpt lat="44.49447" lon="1.64751">
        <ele>266</ele>
        <time>2021-03-13T20:01:48+01:00</time>
      </trkpt>
      <trkpt lat="44.49442" lon="1.64761">
        <ele>266</ele>
        <time>2021-03-13T20:01:53+01:00</time>
      </trkpt>
      <trkpt lat="44.49435" lon="1.6477">
        <ele>265</ele>
        <time>2021-03-13T20:01:58+01:00</time>
      </trkpt>
      <trkpt lat="44.49426" lon="1.64776">
        <ele>264</ele>
        <time>2021-03-13T20:02:03+01:00</time>
      </trkpt>
      <trkpt lat="44.49323" lon="1.6481">
        <ele>260</ele>
        <time>2021-03-13T20:02:08+01:00</time>
      </trkpt>
      <trkpt lat="44.49272" lon="1.6481">
        <ele>261</ele>
        <time>2021-03-13T20:02:13+01:00</time>
      </trkpt>
      <trkpt lat="44.49208" lon="1.64798">
        <ele>265</ele>
        <time>2021-03-13T20:02:18+01:00</time>
      </trkpt>
      <trkpt lat="44.49197" lon="1.64799">
        <ele>266</ele>
        <time>2021-03-13T20:02:23+01:00</time>
      </trkpt>
      <trkpt lat="44.49176" lon="1.64806">
        <ele>268</ele>
        <time>2021-03-13T20:02:28+01:00</time>
      </trkpt>
      <trkpt lat="44.49153" lon="1.64821">
        <ele>269</ele>
        <time>2021-03-13T20:02:33+01:00</time>
      </trkpt>
      <trkpt lat="44.49108" lon="1.64838">
        <ele>273</ele>
        <time>2021-03-13T20:02:38+01:00</time>
      </trkpt>
      <trkpt lat="44.49041" lon="1.6486">
        <ele>276</ele>
        <time>2021-03-13T20:02:43+01:00</time>
      </trkpt>
      <trkpt lat="44.49025" lon="1.64864">
        <ele>276</ele>
        <time>2021-03-13T20:02:48+01:00</time>
      </trkpt>
      <trkpt lat="44.4898" lon="1.64867">
        <ele>277</ele>
        <time>2021-03-13T20:02:53+01:00</time>
      </trkpt>
      <trkpt lat="44.48948" lon="1.64874">
        <ele>276</ele>
        <time>2021-03-13T20:02:58+01:00</time>
      </trkpt>
      <trkpt lat="44.48924" lon="1.64875">
        <ele>276</ele>
        <time>2021-03-13T20:03:03+01:00</time>
      </trkpt>
      <trkpt lat="44.48904" lon="1.64871">
        <ele>275</ele>
        <time>2021-03-13T20:03:08+01:00</time>
      </trkpt>
      <trkpt lat="44.48882" lon="1.64863">
        <ele>274</ele>
        <time>2021-03-13T20:03:13+01:00</time>
      </trkpt>
      <trkpt lat="44.48836" lon="1.6485">
        <ele>273</ele>
        <time>2021-03-13T20:03:18+01:00</time>
      </trkpt>
      <trkpt lat="44.48827" lon="1.64844">
        <ele>273</ele>
        <time>2021-03-13T20:03:23+01:00</time>
      </trkpt>
      <trkpt lat="44.48797" lon="1.64818">
        <ele>273</ele>
        <time>2021-03-13T20:03:28+01:00</time>
      </trkpt>
      <trkpt lat="44.48786" lon="1.64811">
        <ele>273</ele>
        <time>2021-03-13T20:03:33+01:00</time>
      </trkpt>
      <trkpt lat="44.48763" lon="1.64801">
        <ele>272</ele>
        <time>2021-03-13T20:03:38+01:00</time>
      </trkpt>
      <trkpt lat="44.48742" lon="1.64796">
        <ele>270</ele>
        <time>2021-03-13T20:03:43+01:00</time>
      </trkpt>
      <trkpt lat="44.48671" lon="1.64792">
        <ele>262</ele>
        <time>2021-03-13T20:03:48+01:00</time>
      </trkpt>
      <trkpt lat="44.48612" lon="1.64773">
        <ele>251</ele>
        <time>2021-03-13T20:03:53+01:00</time>
      </trkpt>
      <trkpt lat="44.486" lon="1.64777">
        <ele>248</ele>
        <time>2021-03-13T20:03:58+01:00</time>
      </trkpt>
      <trkpt lat="44.48588" lon="1.64785">
        <ele>245</ele>
        <time>2021-03-13T20:04:03+01:00</time>
      </trkpt>
      <trkpt lat="44.48573" lon="1.648">
        <ele>242</ele>
        <time>2021-03-13T20:04:08+01:00</time>
      </trkpt>
      <trkpt lat="44.48563" lon="1.64815">
        <ele>240</ele>
        <time>2021-03-13T20:04:13+01:00</time>
      </trkpt>
      <trkpt lat="44.48558" lon="1.64836">
        <ele>239</ele>
        <time>2021-03-13T20:04:18+01:00</time>
      </trkpt>
      <trkpt lat="44.48554" lon="1.64841">
        <ele>237</ele>
        <time>2021-03-13T20:04:23+01:00</time>
      </trkpt>
      <trkpt lat="44.48546" lon="1.64845">
        <ele>234</ele>
        <time>2021-03-13T20:04:28+01:00</time>
      </trkpt>
      <trkpt lat="44.48539" lon="1.64844">
        <ele>233</ele>
        <time>2021-03-13T20:04:33+01:00</time>
      </trkpt>
      <trkpt lat="44.48528" lon="1.64834">
        <ele>234</ele>
        <time>2021-03-13T20:04:38+01:00</time>
      </trkpt>
      <trkpt lat="44.48516" lon="1.64809">
        <ele>230</ele>
        <time>2021-03-13T20:04:43+01:00</time>
      </trkpt>
      <trkpt lat="44.48512" lon="1.64809">
        <ele>229</ele>
        <time>2021-03-13T20:04:48+01:00</time>
      </trkpt>
      <trkpt lat="44.48508" lon="1.64813">
        <ele>229</ele>
        <time>2021-03-13T20:04:53+01:00</time>
      </trkpt>
      <trkpt lat="44.48508" lon="1.64813">
        <ele>229</ele>
        <time>2021-03-13T20:04:58+01:00</time>
      </trkpt>
      <trkpt lat="44.485" lon="1.64835">
        <ele>229</ele>
        <time>2021-03-13T20:05:03+01:00</time>
      </trkpt>
      <trkpt lat="44.48487" lon="1.64854">
        <ele>222</ele>
        <time>2021-03-13T20:05:08+01:00</time>
      </trkpt>
      <trkpt lat="44.48451" lon="1.64868">
        <ele>212</ele>
        <time>2021-03-13T20:05:13+01:00</time>
      </trkpt>
      <trkpt lat="44.48436" lon="1.64865">
        <ele>209</ele>
        <time>2021-03-13T20:05:18+01:00</time>
      </trkpt>
      <trkpt lat="44.48417" lon="1.64881">
        <ele>204</ele>
        <time>2021-03-13T20:05:23+01:00</time>
      </trkpt>
      <trkpt lat="44.48401" lon="1.64889">
        <ele>200</ele>
        <time>2021-03-13T20:05:28+01:00</time>
      </trkpt>
      <trkpt lat="44.48394" lon="1.64887">
        <ele>198</ele>
        <time>2021-03-13T20:05:33+01:00</time>
      </trkpt>
      <trkpt lat="44.48392" lon="1.64883">
        <ele>198</ele>
        <time>2021-03-13T20:05:38+01:00</time>
      </trkpt>
      <trkpt lat="44.48391" lon="1.64856">
        <ele>198</ele>
        <time>2021-03-13T20:05:43+01:00</time>
      </trkpt>
      <trkpt lat="44.48396" lon="1.64807">
        <ele>194</ele>
        <time>2021-03-13T20:05:48+01:00</time>
      </trkpt>
      <trkpt lat="44.48401" lon="1.64783">
        <ele>191</ele>
        <time>2021-03-13T20:05:53+01:00</time>
      </trkpt>
      <trkpt lat="44.48402" lon="1.64774">
        <ele>189</ele>
        <time>2021-03-13T20:05:58+01:00</time>
      </trkpt>
      <trkpt lat="44.48377" lon="1.64798">
        <ele>186</ele>
        <time>2021-03-13T20:06:03+01:00</time>
      </trkpt>
      <trkpt lat="44.48363" lon="1.64817">
        <ele>186</ele>
        <time>2021-03-13T20:06:08+01:00</time>
      </trkpt>
      <trkpt lat="44.48351" lon="1.64827">
        <ele>185</ele>
        <time>2021-03-13T20:06:13+01:00</time>
      </trkpt>
      <trkpt lat="44.48332" lon="1.64852">
        <ele>182</ele>
        <time>2021-03-13T20:06:18+01:00</time>
      </trkpt>
      <trkpt lat="44.48302" lon="1.6487">
        <ele>178</ele>
        <time>2021-03-13T20:06:23+01:00</time>
      </trkpt>
      <trkpt lat="44.48267" lon="1.64902">
        <ele>178</ele>
        <time>2021-03-13T20:06:28+01:00</time>
      </trkpt>
      <trkpt lat="44.48236" lon="1.64925">
        <ele>175</ele>
        <time>2021-03-13T20:06:33+01:00</time>
      </trkpt>
      <trkpt lat="44.48201" lon="1.64938">
        <ele>167</ele>
        <time>2021-03-13T20:06:38+01:00</time>
      </trkpt>
      <trkpt lat="44.48176" lon="1.64953">
        <ele>162</ele>
        <time>2021-03-13T20:06:43+01:00</time>
      </trkpt>
      <trkpt lat="44.48161" lon="1.64966">
        <ele>159</ele>
        <time>2021-03-13T20:06:48+01:00</time>
      </trkpt>
      <trkpt lat="44.48127" lon="1.64983">
        <ele>158</ele>
        <time>2021-03-13T20:06:53+01:00</time>
      </trkpt>
      <trkpt lat="44.48116" lon="1.64992">
        <ele>158</ele>
        <time>2021-03-13T20:06:58+01:00</time>
      </trkpt>
      <trkpt lat="44.481" lon="1.65002">
        <ele>158</ele>
        <time>2021-03-13T20:07:03+01:00</time>
      </trkpt>
      <trkpt lat="44.48077" lon="1.65012">
        <ele>157</ele>
        <time>2021-03-13T20:07:08+01:00</time>
      </trkpt>
      <trkpt lat="44.48043" lon="1.65021">
        <ele>156</ele>
        <time>2021-03-13T20:07:13+01:00</time>
      </trkpt>
      <trkpt lat="44.48011" lon="1.65042">
        <ele>155</ele>
        <time>2021-03-13T20:07:18+01:00</time>
      </trkpt>
      <trkpt lat="44.47995" lon="1.65048">
        <ele>154</ele>
        <time>2021-03-13T20:07:23+01:00</time>
      </trkpt>
      <trkpt lat="44.47986" lon="1.65055">
        <ele>152</ele>
        <time>2021-03-13T20:07:28+01:00</time>
      </trkpt>
      <trkpt lat="44.47968" lon="1.65069">
        <ele>150</ele>
        <time>2021-03-13T20:07:33+01:00</time>
      </trkpt>
      <trkpt lat="44.47936" lon="1.65082">
        <ele>148</ele>
        <time>2021-03-13T20:07:38+01:00</time>
      </trkpt>
      <trkpt lat="44.47919" lon="1.65086">
        <ele>147</ele>
        <time>2021-03-13T20:07:43+01:00</time>
      </trkpt>
      <trkpt lat="44.47914" lon="1.65085">
        <ele>146</ele>
        <time>2021-03-13T20:07:48+01:00</time>
      </trkpt>
      <trkpt lat="44.4791" lon="1.65084">
        <ele>146</ele>
        <time>2021-03-13T20:07:53+01:00</time>
      </trkpt>
      <trkpt lat="44.47903" lon="1.65079">
        <ele>145</ele>
        <time>2021-03-13T20:07:58+01:00</time>
      </trkpt>
      <trkpt lat="44.479" lon="1.65065">
        <ele>145</ele>
        <time>2021-03-13T20:08:03+01:00</time>
      </trkpt>
      <trkpt lat="44.47897" lon="1.65032">
        <ele>145</ele>
        <time>2021-03-13T20:08:08+01:00</time>
      </trkpt>
      <trkpt lat="44.47894" lon="1.65013">
        <ele>145</ele>
        <time>2021-03-13T20:08:13+01:00</time>
      </trkpt>
      <trkpt lat="44.47895" lon="1.65002">
        <ele>145</ele>
        <time>2021-03-13T20:08:18+01:00</time>
      </trkpt>
      <trkpt lat="44.47895" lon="1.64987">
        <ele>144</ele>
        <time>2021-03-13T20:08:23+01:00</time>
      </trkpt>
      <trkpt lat="44.479" lon="1.64972">
        <ele>143</ele>
        <time>2021-03-13T20:08:28+01:00</time>
      </trkpt>
      <trkpt lat="44.47907" lon="1.64961">
        <ele>142</ele>
        <time>2021-03-13T20:08:33+01:00</time>
      </trkpt>
      <trkpt lat="44.47926" lon="1.64942">
        <ele>142</ele>
        <time>2021-03-13T20:08:38+01:00</time>
      </trkpt>
      <trkpt lat="44.47933" lon="1.6493">
        <ele>142</ele>
        <time>2021-03-13T20:08:43+01:00</time>
      </trkpt>
      <trkpt lat="44.47939" lon="1.64915">
        <ele>140</ele>
        <time>2021-03-13T20:08:48+01:00</time>
      </trkpt>
      <trkpt lat="44.47952" lon="1.64907">
        <ele>141</ele>
        <time>2021-03-13T20:08:53+01:00</time>
      </trkpt>
      <trkpt lat="44.48003" lon="1.64883">
        <ele>141</ele>
        <time>2021-03-13T20:08:58+01:00</time>
      </trkpt>
      <trkpt lat="44.48007" lon="1.64881">
        <ele>141</ele>
        <time>2021-03-13T20:09:03+01:00</time>
      </trkpt>
      <trkpt lat="44.48068" lon="1.64854">
        <ele>139</ele>
        <time>2021-03-13T20:09:08+01:00</time>
      </trkpt>
      <trkpt lat="44.48285" lon="1.64758">
        <ele>150</ele>
        <time>2021-03-13T20:09:13+01:00</time>
      </trkpt>
      <trkpt lat="44.48321" lon="1.64739">
        <ele>154</ele>
        <time>2021-03-13T20:09:18+01:00</time>
      </trkpt>
      <trkpt lat="44.48355" lon="1.64716">
        <ele>158</ele>
        <time>2021-03-13T20:09:23+01:00</time>
      </trkpt>
      <trkpt lat="44.48384" lon="1.64694">
        <ele>159</ele>
        <time>2021-03-13T20:09:28+01:00</time>
      </trkpt>
      <trkpt lat="44.48412" lon="1.64671">
        <ele>157</ele>
        <time>2021-03-13T20:09:33+01:00</time>
      </trkpt>
      <trkpt lat="44.48462" lon="1.64629">
        <ele>165</ele>
        <time>2021-03-13T20:09:38+01:00</time>
      </trkpt>
      <trkpt lat="44.48493" lon="1.646">
        <ele>165</ele>
        <time>2021-03-13T20:09:43+01:00</time>
      </trkpt>
      <trkpt lat="44.48547" lon="1.64518">
        <ele>172</ele>
        <time>2021-03-13T20:09:48+01:00</time>
      </trkpt>
      <trkpt lat="44.48567" lon="1.64465">
        <ele>164</ele>
        <time>2021-03-13T20:09:53+01:00</time>
      </trkpt>
      <trkpt lat="44.48617" lon="1.64341">
        <ele>156</ele>
        <time>2021-03-13T20:09:58+01:00</time>
      </trkpt>
      <trkpt lat="44.48617" lon="1.64342">
        <ele>156</ele>
        <time>2021-03-13T20:10:03+01:00</time>
      </trkpt>
      <trkpt lat="44.48617" lon="1.64341">
        <ele>156</ele>
        <time>2021-03-13T20:10:08+01:00</time>
      </trkpt>
      <trkpt lat="44.48613" lon="1.64337">
        <ele>153</ele>
        <time>2021-03-13T20:10:13+01:00</time>
      </trkpt>
      <trkpt lat="44.48585" lon="1.64306">
        <ele>136</ele>
        <time>2021-03-13T20:10:18+01:00</time>
      </trkpt>
      <trkpt lat="44.48523" lon="1.6424">
        <ele>137</ele>
        <time>2021-03-13T20:10:23+01:00</time>
      </trkpt>
      <trkpt lat="44.48533" lon="1.64266">
        <ele>136</ele>
        <time>2021-03-13T20:10:28+01:00</time>
      </trkpt>
      <trkpt lat="44.48531" lon="1.64288">
        <ele>135</ele>
        <time>2021-03-13T20:10:33+01:00</time>
      </trkpt>
      <trkpt lat="44.48525" lon="1.6432">
        <ele>134</ele>
        <time>2021-03-13T20:10:38+01:00</time>
      </trkpt>
      <trkpt lat="44.48514" lon="1.64353">
        <ele>134</ele>
        <time>2021-03-13T20:10:43+01:00</time>
      </trkpt>
      <trkpt lat="44.48505" lon="1.64382">
        <ele>134</ele>
        <time>2021-03-13T20:10:48+01:00</time>
      </trkpt>
      <trkpt lat="44.48495" lon="1.64404">
        <ele>134</ele>
        <time>2021-03-13T20:10:53+01:00</time>
      </trkpt>
      <trkpt lat="44.4847" lon="1.64446">
        <ele>136</ele>
        <time>2021-03-13T20:10:58+01:00</time>
      </trkpt>
      <trkpt lat="44.48454" lon="1.64467">
        <ele>137</ele>
        <time>2021-03-13T20:11:03+01:00</time>
      </trkpt>
      <trkpt lat="44.48446" lon="1.6447">
        <ele>137</ele>
        <time>2021-03-13T20:11:08+01:00</time>
      </trkpt>
      <trkpt lat="44.48438" lon="1.64472">
        <ele>136</ele>
        <time>2021-03-13T20:11:13+01:00</time>
      </trkpt>
      <trkpt lat="44.4843" lon="1.6447">
        <ele>136</ele>
        <time>2021-03-13T20:11:18+01:00</time>
      </trkpt>
      <trkpt lat="44.48426" lon="1.64467">
        <ele>135</ele>
        <time>2021-03-13T20:11:23+01:00</time>
      </trkpt>
      <trkpt lat="44.48423" lon="1.64464">
        <ele>135</ele>
        <time>2021-03-13T20:11:28+01:00</time>
      </trkpt>
      <trkpt lat="44.48419" lon="1.6447">
        <ele>135</ele>
        <time>2021-03-13T20:11:33+01:00</time>
      </trkpt>
      <trkpt lat="44.4837" lon="1.64521">
        <ele>134</ele>
        <time>2021-03-13T20:11:38+01:00</time>
      </trkpt>
      <trkpt lat="44.48352" lon="1.64534">
        <ele>134</ele>
        <time>2021-03-13T20:11:43+01:00</time>
      </trkpt>
      <trkpt lat="44.48334" lon="1.64545">
        <ele>134</ele>
        <time>2021-03-13T20:11:48+01:00</time>
      </trkpt>
      <trkpt lat="44.48325" lon="1.64548">
        <ele>134</ele>
        <time>2021-03-13T20:11:53+01:00</time>
      </trkpt>
      <trkpt lat="44.48299" lon="1.64558">
        <ele>134</ele>
        <time>2021-03-13T20:11:58+01:00</time>
      </trkpt>
      <trkpt lat="44.48286" lon="1.64562">
        <ele>133</ele>
        <time>2021-03-13T20:12:03+01:00</time>
      </trkpt>
      <trkpt lat="44.48279" lon="1.64562">
        <ele>133</ele>
        <time>2021-03-13T20:12:08+01:00</time>
      </trkpt>
      <trkpt lat="44.48272" lon="1.64569">
        <ele>133</ele>
        <time>2021-03-13T20:12:13+01:00</time>
      </trkpt>
      <trkpt lat="44.48262" lon="1.64571">
        <ele>132</ele>
        <time>2021-03-13T20:12:18+01:00</time>
      </trkpt>
      <trkpt lat="44.48245" lon="1.64573">
        <ele>132</ele>
        <time>2021-03-13T20:12:23+01:00</time>
      </trkpt>
      <trkpt lat="44.48233" lon="1.64579">
        <ele>132</ele>
        <time>2021-03-13T20:12:28+01:00</time>
      </trkpt>
      <trkpt lat="44.48226" lon="1.6458">
        <ele>132</ele>
        <time>2021-03-13T20:12:33+01:00</time>
      </trkpt>
      <trkpt lat="44.48138" lon="1.64591">
        <ele>135</ele>
        <time>2021-03-13T20:12:38+01:00</time>
      </trkpt>
      <trkpt lat="44.48127" lon="1.64594">
        <ele>136</ele>
        <time>2021-03-13T20:12:43+01:00</time>
      </trkpt>
      <trkpt lat="44.48119" lon="1.64596">
        <ele>137</ele>
        <time>2021-03-13T20:12:48+01:00</time>
      </trkpt>
      <trkpt lat="44.48112" lon="1.64597">
        <ele>137</ele>
        <time>2021-03-13T20:12:53+01:00</time>
      </trkpt>
      <trkpt lat="44.48058" lon="1.64595">
        <ele>144</ele>
        <time>2021-03-13T20:12:58+01:00</time>
      </trkpt>
      <trkpt lat="44.48022" lon="1.64593">
        <ele>151</ele>
        <time>2021-03-13T20:13:03+01:00</time>
      </trkpt>
      <trkpt lat="44.47987" lon="1.64593">
        <ele>157</ele>
        <time>2021-03-13T20:13:08+01:00</time>
      </trkpt>
      <trkpt lat="44.47967" lon="1.64589">
        <ele>161</ele>
        <time>2021-03-13T20:13:13+01:00</time>
      </trkpt>
      <trkpt lat="44.47947" lon="1.64578">
        <ele>167</ele>
        <time>2021-03-13T20:13:18+01:00</time>
      </trkpt>
      <trkpt lat="44.47929" lon="1.64573">
        <ele>171</ele>
        <time>2021-03-13T20:13:23+01:00</time>
      </trkpt>
      <trkpt lat="44.47893" lon="1.64578">
        <ele>169</ele>
        <time>2021-03-13T20:13:28+01:00</time>
      </trkpt>
      <trkpt lat="44.47883" lon="1.64576">
        <ele>169</ele>
        <time>2021-03-13T20:13:33+01:00</time>
      </trkpt>
      <trkpt lat="44.4784" lon="1.64554">
        <ele>176</ele>
        <time>2021-03-13T20:13:38+01:00</time>
      </trkpt>
      <trkpt lat="44.47793" lon="1.64533">
        <ele>190</ele>
        <time>2021-03-13T20:13:43+01:00</time>
      </trkpt>
      <trkpt lat="44.47777" lon="1.64537">
        <ele>189</ele>
        <time>2021-03-13T20:13:48+01:00</time>
      </trkpt>
      <trkpt lat="44.47749" lon="1.64549">
        <ele>183</ele>
        <time>2021-03-13T20:13:53+01:00</time>
      </trkpt>
      <trkpt lat="44.47691" lon="1.64559">
        <ele>182</ele>
        <time>2021-03-13T20:13:58+01:00</time>
      </trkpt>
      <trkpt lat="44.4765" lon="1.64563">
        <ele>187</ele>
        <time>2021-03-13T20:14:03+01:00</time>
      </trkpt>
      <trkpt lat="44.4763" lon="1.64569">
        <ele>189</ele>
        <time>2021-03-13T20:14:08+01:00</time>
      </trkpt>
      <trkpt lat="44.47608" lon="1.64579">
        <ele>189</ele>
        <time>2021-03-13T20:14:13+01:00</time>
      </trkpt>
      <trkpt lat="44.47599" lon="1.6458">
        <ele>191</ele>
        <time>2021-03-13T20:14:18+01:00</time>
      </trkpt>
      <trkpt lat="44.47567" lon="1.64594">
        <ele>190</ele>
        <time>2021-03-13T20:14:23+01:00</time>
      </trkpt>
      <trkpt lat="44.47545" lon="1.64608">
        <ele>187</ele>
        <time>2021-03-13T20:14:28+01:00</time>
      </trkpt>
      <trkpt lat="44.4753" lon="1.64617">
        <ele>185</ele>
        <time>2021-03-13T20:14:33+01:00</time>
      </trkpt>
      <trkpt lat="44.47513" lon="1.64627">
        <ele>184</ele>
        <time>2021-03-13T20:14:38+01:00</time>
      </trkpt>
      <trkpt lat="44.475" lon="1.64635">
        <ele>183</ele>
        <time>2021-03-13T20:14:43+01:00</time>
      </trkpt>
      <trkpt lat="44.47484" lon="1.64643">
        <ele>185</ele>
        <time>2021-03-13T20:14:48+01:00</time>
      </trkpt>
      <trkpt lat="44.47473" lon="1.6465">
        <ele>186</ele>
        <time>2021-03-13T20:14:53+01:00</time>
      </trkpt>
      <trkpt lat="44.47462" lon="1.6466">
        <ele>186</ele>
        <time>2021-03-13T20:14:58+01:00</time>
      </trkpt>
      <trkpt lat="44.4745" lon="1.64674">
        <ele>187</ele>
        <time>2021-03-13T20:15:03+01:00</time>
      </trkpt>
      <trkpt lat="44.47425" lon="1.64707">
        <ele>185</ele>
        <time>2021-03-13T20:15:08+01:00</time>
      </trkpt>
      <trkpt lat="44.47415" lon="1.64718">
        <ele>185</ele>
        <time>2021-03-13T20:15:13+01:00</time>
      </trkpt>
      <trkpt lat="44.47404" lon="1.64737">
        <ele>183</ele>
        <time>2021-03-13T20:15:18+01:00</time>
      </trkpt>
      <trkpt lat="44.47402" lon="1.64739">
        <ele>183</ele>
        <time>2021-03-13T20:15:23+01:00</time>
      </trkpt>
      <trkpt lat="44.47389" lon="1.64761">
        <ele>180</ele>
        <time>2021-03-13T20:15:28+01:00</time>
      </trkpt>
      <trkpt lat="44.47383" lon="1.6477">
        <ele>178</ele>
        <time>2021-03-13T20:15:33+01:00</time>
      </trkpt>
      <trkpt lat="44.47369" lon="1.64793">
        <ele>172</ele>
        <time>2021-03-13T20:15:38+01:00</time>
      </trkpt>
      <trkpt lat="44.47333" lon="1.64855">
        <ele>152</ele>
        <time>2021-03-13T20:15:43+01:00</time>
      </trkpt>
      <trkpt lat="44.47306" lon="1.6496">
        <ele>141</ele>
        <time>2021-03-13T20:15:48+01:00</time>
      </trkpt>
      <trkpt lat="44.47287" lon="1.65052">
        <ele>136</ele>
        <time>2021-03-13T20:15:53+01:00</time>
      </trkpt>
      <trkpt lat="44.47278" lon="1.65104">
        <ele>135</ele>
        <time>2021-03-13T20:15:58+01:00</time>
      </trkpt>
      <trkpt lat="44.47276" lon="1.65152">
        <ele>135</ele>
        <time>2021-03-13T20:16:03+01:00</time>
      </trkpt>
      <trkpt lat="44.47276" lon="1.65159">
        <ele>134</ele>
        <time>2021-03-13T20:16:08+01:00</time>
      </trkpt>
      <trkpt lat="44.47275" lon="1.65202">
        <ele>133</ele>
        <time>2021-03-13T20:16:13+01:00</time>
      </trkpt>
      <trkpt lat="44.47276" lon="1.65261">
        <ele>132</ele>
        <time>2021-03-13T20:16:18+01:00</time>
      </trkpt>
      <trkpt lat="44.47287" lon="1.65454">
        <ele>136</ele>
        <time>2021-03-13T20:16:23+01:00</time>
      </trkpt>
      <trkpt lat="44.47289" lon="1.65551">
        <ele>136</ele>
        <time>2021-03-13T20:16:28+01:00</time>
      </trkpt>
      <trkpt lat="44.47278" lon="1.65551">
        <ele>135</ele>
        <time>2021-03-13T20:16:33+01:00</time>
      </trkpt>
      <trkpt lat="44.47224" lon="1.65552">
        <ele>134</ele>
        <time>2021-03-13T20:16:38+01:00</time>
      </trkpt>
      <trkpt lat="44.47207" lon="1.65551">
        <ele>136</ele>
        <time>2021-03-13T20:16:43+01:00</time>
      </trkpt>
      <trkpt lat="44.47191" lon="1.65553">
        <ele>137</ele>
        <time>2021-03-13T20:16:48+01:00</time>
      </trkpt>
      <trkpt lat="44.47176" lon="1.65557">
        <ele>138</ele>
        <time>2021-03-13T20:16:53+01:00</time>
      </trkpt>
      <trkpt lat="44.47159" lon="1.65563">
        <ele>140</ele>
        <time>2021-03-13T20:16:58+01:00</time>
      </trkpt>
      <trkpt lat="44.47158" lon="1.65577">
        <ele>140</ele>
        <time>2021-03-13T20:17:03+01:00</time>
      </trkpt>
      <trkpt lat="44.47161" lon="1.65601">
        <ele>140</ele>
        <time>2021-03-13T20:17:08+01:00</time>
      </trkpt>
      <trkpt lat="44.47172" lon="1.65645">
        <ele>141</ele>
        <time>2021-03-13T20:17:13+01:00</time>
      </trkpt>
      <trkpt lat="44.47176" lon="1.65675">
        <ele>142</ele>
        <time>2021-03-13T20:17:18+01:00</time>
      </trkpt>
      <trkpt lat="44.47178" lon="1.65706">
        <ele>140</ele>
        <time>2021-03-13T20:17:23+01:00</time>
      </trkpt>
      <trkpt lat="44.47176" lon="1.65745">
        <ele>139</ele>
        <time>2021-03-13T20:17:28+01:00</time>
      </trkpt>
      <trkpt lat="44.47171" lon="1.65787">
        <ele>139</ele>
        <time>2021-03-13T20:17:33+01:00</time>
      </trkpt>
      <trkpt lat="44.4717" lon="1.65792">
        <ele>139</ele>
        <time>2021-03-13T20:17:38+01:00</time>
      </trkpt>
      <trkpt lat="44.47161" lon="1.65894">
        <ele>142</ele>
        <time>2021-03-13T20:17:43+01:00</time>
      </trkpt>
      <trkpt lat="44.47145" lon="1.65955">
        <ele>146</ele>
        <time>2021-03-13T20:17:48+01:00</time>
      </trkpt>
      <trkpt lat="44.47133" lon="1.6603">
        <ele>146</ele>
        <time>2021-03-13T20:17:53+01:00</time>
      </trkpt>
      <trkpt lat="44.47106" lon="1.66105">
        <ele>144</ele>
        <time>2021-03-13T20:17:58+01:00</time>
      </trkpt>
      <trkpt lat="44.47097" lon="1.6612">
        <ele>143</ele>
        <time>2021-03-13T20:18:03+01:00</time>
      </trkpt>
      <trkpt lat="44.47089" lon="1.66129">
        <ele>142</ele>
        <time>2021-03-13T20:18:08+01:00</time>
      </trkpt>
      <trkpt lat="44.47066" lon="1.66145">
        <ele>143</ele>
        <time>2021-03-13T20:18:13+01:00</time>
      </trkpt>
      <trkpt lat="44.47054" lon="1.66158">
        <ele>143</ele>
        <time>2021-03-13T20:18:18+01:00</time>
      </trkpt>
      <trkpt lat="44.47049" lon="1.66168">
        <ele>143</ele>
        <time>2021-03-13T20:18:23+01:00</time>
      </trkpt>
      <trkpt lat="44.47029" lon="1.66219">
        <ele>143</ele>
        <time>2021-03-13T20:18:28+01:00</time>
      </trkpt>
      <trkpt lat="44.47006" lon="1.66253">
        <ele>143</ele>
        <time>2021-03-13T20:18:33+01:00</time>
      </trkpt>
      <trkpt lat="44.46951" lon="1.66357">
        <ele>152</ele>
        <time>2021-03-13T20:18:38+01:00</time>
      </trkpt>
      <trkpt lat="44.46928" lon="1.66385">
        <ele>157</ele>
        <time>2021-03-13T20:18:43+01:00</time>
      </trkpt>
      <trkpt lat="44.46907" lon="1.66417">
        <ele>160</ele>
        <time>2021-03-13T20:18:48+01:00</time>
      </trkpt>
      <trkpt lat="44.46891" lon="1.66438">
        <ele>161</ele>
        <time>2021-03-13T20:18:53+01:00</time>
      </trkpt>
      <trkpt lat="44.4688" lon="1.66447">
        <ele>162</ele>
        <time>2021-03-13T20:18:58+01:00</time>
      </trkpt>
      <trkpt lat="44.46865" lon="1.66468">
        <ele>162</ele>
        <time>2021-03-13T20:19:03+01:00</time>
      </trkpt>
      <trkpt lat="44.46838" lon="1.66514">
        <ele>158</ele>
        <time>2021-03-13T20:19:08+01:00</time>
      </trkpt>
      <trkpt lat="44.46807" lon="1.66559">
        <ele>164</ele>
        <time>2021-03-13T20:19:13+01:00</time>
      </trkpt>
      <trkpt lat="44.46777" lon="1.66593">
        <ele>173</ele>
        <time>2021-03-13T20:19:18+01:00</time>
      </trkpt>
      <trkpt lat="44.46749" lon="1.66618">
        <ele>177</ele>
        <time>2021-03-13T20:19:23+01:00</time>
      </trkpt>
      <trkpt lat="44.46742" lon="1.66624">
        <ele>177</ele>
        <time>2021-03-13T20:19:28+01:00</time>
      </trkpt>
      <trkpt lat="44.4673" lon="1.66629">
        <ele>180</ele>
        <time>2021-03-13T20:19:33+01:00</time>
      </trkpt>
      <trkpt lat="44.46724" lon="1.66632">
        <ele>182</ele>
        <time>2021-03-13T20:19:38+01:00</time>
      </trkpt>
      <trkpt lat="44.46722" lon="1.66634">
        <ele>182</ele>
        <time>2021-03-13T20:19:43+01:00</time>
      </trkpt>
      <trkpt lat="44.46708" lon="1.6665">
        <ele>179</ele>
        <time>2021-03-13T20:19:48+01:00</time>
      </trkpt>
      <trkpt lat="44.46699" lon="1.66661">
        <ele>177</ele>
        <time>2021-03-13T20:19:53+01:00</time>
      </trkpt>
      <trkpt lat="44.46692" lon="1.66667">
        <ele>177</ele>
        <time>2021-03-13T20:19:58+01:00</time>
      </trkpt>
      <trkpt lat="44.46687" lon="1.66665">
        <ele>180</ele>
        <time>2021-03-13T20:20:03+01:00</time>
      </trkpt>
      <trkpt lat="44.46683" lon="1.66667">
        <ele>181</ele>
        <time>2021-03-13T20:20:08+01:00</time>
      </trkpt>
      <trkpt lat="44.46677" lon="1.66666">
        <ele>185</ele>
        <time>2021-03-13T20:20:13+01:00</time>
      </trkpt>
      <trkpt lat="44.46676" lon="1.66668">
        <ele>184</ele>
        <time>2021-03-13T20:20:18+01:00</time>
      </trkpt>
      <trkpt lat="44.46677" lon="1.66675">
        <ele>180</ele>
        <time>2021-03-13T20:20:23+01:00</time>
      </trkpt>
      <trkpt lat="44.46677" lon="1.66678">
        <ele>179</ele>
        <time>2021-03-13T20:20:28+01:00</time>
      </trkpt>
      <trkpt lat="44.46674" lon="1.66678">
        <ele>180</ele>
        <time>2021-03-13T20:20:33+01:00</time>
      </trkpt>
      <trkpt lat="44.46671" lon="1.6667">
        <ele>185</ele>
        <time>2021-03-13T20:20:38+01:00</time>
      </trkpt>
      <trkpt lat="44.46668" lon="1.66671">
        <ele>186</ele>
        <time>2021-03-13T20:20:43+01:00</time>
      </trkpt>
      <trkpt lat="44.46667" lon="1.66675">
        <ele>185</ele>
        <time>2021-03-13T20:20:48+01:00</time>
      </trkpt>
      <trkpt lat="44.46666" lon="1.66676">
        <ele>184</ele>
        <time>2021-03-13T20:20:53+01:00</time>
      </trkpt>
      <trkpt lat="44.46658" lon="1.66677">
        <ele>186</ele>
        <time>2021-03-13T20:20:58+01:00</time>
      </trkpt>
      <trkpt lat="44.46652" lon="1.66684">
        <ele>184</ele>
        <time>2021-03-13T20:21:03+01:00</time>
      </trkpt>
      <trkpt lat="44.46645" lon="1.66684">
        <ele>186</ele>
        <time>2021-03-13T20:21:08+01:00</time>
      </trkpt>
      <trkpt lat="44.46611" lon="1.66702">
        <ele>188</ele>
        <time>2021-03-13T20:21:13+01:00</time>
      </trkpt>
      <trkpt lat="44.46607" lon="1.66707">
        <ele>188</ele>
        <time>2021-03-13T20:21:18+01:00</time>
      </trkpt>
      <trkpt lat="44.46602" lon="1.66722">
        <ele>183</ele>
        <time>2021-03-13T20:21:23+01:00</time>
      </trkpt>
      <trkpt lat="44.46598" lon="1.66725">
        <ele>184</ele>
        <time>2021-03-13T20:21:28+01:00</time>
      </trkpt>
      <trkpt lat="44.4658" lon="1.66716">
        <ele>194</ele>
        <time>2021-03-13T20:21:33+01:00</time>
      </trkpt>
      <trkpt lat="44.46568" lon="1.66719">
        <ele>200</ele>
        <time>2021-03-13T20:21:38+01:00</time>
      </trkpt>
      <trkpt lat="44.4655" lon="1.66731">
        <ele>206</ele>
        <time>2021-03-13T20:21:43+01:00</time>
      </trkpt>
      <trkpt lat="44.46535" lon="1.66743">
        <ele>211</ele>
        <time>2021-03-13T20:21:48+01:00</time>
      </trkpt>
      <trkpt lat="44.46507" lon="1.66777">
        <ele>221</ele>
        <time>2021-03-13T20:21:53+01:00</time>
      </trkpt>
      <trkpt lat="44.46499" lon="1.66791">
        <ele>223</ele>
        <time>2021-03-13T20:21:58+01:00</time>
      </trkpt>
      <trkpt lat="44.46495" lon="1.66809">
        <ele>220</ele>
        <time>2021-03-13T20:22:03+01:00</time>
      </trkpt>
      <trkpt lat="44.46492" lon="1.66811">
        <ele>221</ele>
        <time>2021-03-13T20:22:08+01:00</time>
      </trkpt>
      <trkpt lat="44.46487" lon="1.66802">
        <ele>223</ele>
        <time>2021-03-13T20:22:13+01:00</time>
      </trkpt>
      <trkpt lat="44.46487" lon="1.66812">
        <ele>222</ele>
        <time>2021-03-13T20:22:18+01:00</time>
      </trkpt>
      <trkpt lat="44.46474" lon="1.66813">
        <ele>224</ele>
        <time>2021-03-13T20:22:23+01:00</time>
      </trkpt>
      <trkpt lat="44.46471" lon="1.66821">
        <ele>223</ele>
        <time>2021-03-13T20:22:28+01:00</time>
      </trkpt>
      <trkpt lat="44.4647" lon="1.6683">
        <ele>222</ele>
        <time>2021-03-13T20:22:33+01:00</time>
      </trkpt>
      <trkpt lat="44.46468" lon="1.66837">
        <ele>222</ele>
        <time>2021-03-13T20:22:38+01:00</time>
      </trkpt>
      <trkpt lat="44.46468" lon="1.66845">
        <ele>222</ele>
        <time>2021-03-13T20:22:43+01:00</time>
      </trkpt>
      <trkpt lat="44.46468" lon="1.66837">
        <ele>222</ele>
        <time>2021-03-13T20:22:48+01:00</time>
      </trkpt>
      <trkpt lat="44.46464" lon="1.66839">
        <ele>223</ele>
        <time>2021-03-13T20:22:53+01:00</time>
      </trkpt>
      <trkpt lat="44.4646" lon="1.66838">
        <ele>224</ele>
        <time>2021-03-13T20:22:58+01:00</time>
      </trkpt>
      <trkpt lat="44.46458" lon="1.66828">
        <ele>225</ele>
        <time>2021-03-13T20:23:03+01:00</time>
      </trkpt>
      <trkpt lat="44.46451" lon="1.66828">
        <ele>226</ele>
        <time>2021-03-13T20:23:08+01:00</time>
      </trkpt>
      <trkpt lat="44.46444" lon="1.66824">
        <ele>229</ele>
        <time>2021-03-13T20:23:13+01:00</time>
      </trkpt>
      <trkpt lat="44.46431" lon="1.66815">
        <ele>233</ele>
        <time>2021-03-13T20:23:18+01:00</time>
      </trkpt>
      <trkpt lat="44.46432" lon="1.66812">
        <ele>233</ele>
        <time>2021-03-13T20:23:23+01:00</time>
      </trkpt>
      <trkpt lat="44.46439" lon="1.66794">
        <ele>235</ele>
        <time>2021-03-13T20:23:28+01:00</time>
      </trkpt>
      <trkpt lat="44.46439" lon="1.66789">
        <ele>235</ele>
        <time>2021-03-13T20:23:33+01:00</time>
      </trkpt>
      <trkpt lat="44.46436" lon="1.66782">
        <ele>237</ele>
        <time>2021-03-13T20:23:38+01:00</time>
      </trkpt>
      <trkpt lat="44.46433" lon="1.66779">
        <ele>238</ele>
        <time>2021-03-13T20:23:43+01:00</time>
      </trkpt>
      <trkpt lat="44.46433" lon="1.66778">
        <ele>238</ele>
        <time>2021-03-13T20:23:48+01:00</time>
      </trkpt>
      <trkpt lat="44.46432" lon="1.66777">
        <ele>239</ele>
        <time>2021-03-13T20:23:53+01:00</time>
      </trkpt>
      <trkpt lat="44.46433" lon="1.66774">
        <ele>239</ele>
        <time>2021-03-13T20:23:58+01:00</time>
      </trkpt>
      <trkpt lat="44.46426" lon="1.66773">
        <ele>241</ele>
        <time>2021-03-13T20:24:03+01:00</time>
      </trkpt>
      <trkpt lat="44.46427" lon="1.66769">
        <ele>241</ele>
        <time>2021-03-13T20:24:08+01:00</time>
      </trkpt>
      <trkpt lat="44.46449" lon="1.66774">
        <ele>236</ele>
        <time>2021-03-13T20:24:13+01:00</time>
      </trkpt>
    </trkseg>
  </trk>
</gpx>